<?xml version='1.0' encoding='UTF-8'?><gpx version="1.1" creator="JPX - https://github.com/jenetics/jpx" xmlns="http://www.topografix.com/GPX/1/1"><trk><trkseg><trkpt lat="45.3227883" lon="7.8790117"><ele>315.0</ele><time>2026-05-01T14:32:49.95Z</time></trkpt><trkpt lat="45.3228367" lon="7.8790883"><ele>315.0</ele><time>2026-05-01T14:40:07.95Z</time></trkpt><trkpt lat="45.3229167" lon="7.8790733"><ele>315.0</ele><time>2026-05-01T14:40:09.95Z</time></trkpt><trkpt lat="45.3230083" lon="7.8790383"><ele>315.0</ele><time>2026-05-01T14:40:12.95Z</time></trkpt><trkpt lat="45.32311" lon="7.8790133"><ele>315.0</ele><time>2026-05-01T14:40:14.95Z</time></trkpt><trkpt lat="45.323195" lon="7.8790217"><ele>315.0</ele><time>2026-05-01T14:40:15.95Z</time></trkpt><trkpt lat="45.3232833" lon="7.8790517"><ele>315.0</ele><time>2026-05-01T14:40:16.951Z</time></trkpt><trkpt lat="45.3233867" lon="7.8790833"><ele>315.0</ele><time>2026-05-01T14:40:17.95Z</time></trkpt><trkpt lat="45.3235017" lon="7.8791217"><ele>315.0</ele><time>2026-05-01T14:40:18.95Z</time></trkpt><trkpt lat="45.3236167" lon="7.8791567"><ele>315.0</ele><time>2026-05-01T14:40:19.95Z</time></trkpt><trkpt lat="45.32374" lon="7.8791967"><ele>315.0</ele><time>2026-05-01T14:40:20.95Z</time></trkpt><trkpt lat="45.3238567" lon="7.8792383"><ele>315.0</ele><time>2026-05-01T14:40:21.95Z</time></trkpt><trkpt lat="45.323975" lon="7.87929"><ele>315.0</ele><time>2026-05-01T14:40:22.95Z</time></trkpt><trkpt lat="45.3240883" lon="7.87935"><ele>315.0</ele><time>2026-05-01T14:40:23.95Z</time></trkpt><trkpt lat="45.3241917" lon="7.8794317"><ele>317.0</ele><time>2026-05-01T14:40:24.951Z</time></trkpt><trkpt lat="45.3242917" lon="7.8795317"><ele>319.0</ele><time>2026-05-01T14:40:25.95Z</time></trkpt><trkpt lat="45.324385" lon="7.8796533"><ele>321.0</ele><time>2026-05-01T14:40:26.951Z</time></trkpt><trkpt lat="45.324475" lon="7.8797967"><ele>323.0</ele><time>2026-05-01T14:40:27.951Z</time></trkpt><trkpt lat="45.3245567" lon="7.8799433"><ele>320.5</ele><time>2026-05-01T14:40:28.95Z</time></trkpt><trkpt lat="45.3246317" lon="7.8801067"><ele>318.0</ele><time>2026-05-01T14:40:29.95Z</time></trkpt><trkpt lat="45.3247117" lon="7.8802667"><ele>315.5</ele><time>2026-05-01T14:40:30.951Z</time></trkpt><trkpt lat="45.32479" lon="7.88042"><ele>313.0</ele><time>2026-05-01T14:40:31.95Z</time></trkpt><trkpt lat="45.3248717" lon="7.8805667"><ele>313.0</ele><time>2026-05-01T14:40:32.95Z</time></trkpt><trkpt lat="45.3249467" lon="7.880705"><ele>313.0</ele><time>2026-05-01T14:40:33.951Z</time></trkpt><trkpt lat="45.32502" lon="7.8808283"><ele>313.0</ele><time>2026-05-01T14:40:34.951Z</time></trkpt><trkpt lat="45.3251" lon="7.8809433"><ele>313.0</ele><time>2026-05-01T14:40:35.95Z</time></trkpt><trkpt lat="45.3251833" lon="7.8810583"><ele>313.5</ele><time>2026-05-01T14:40:36.95Z</time></trkpt><trkpt lat="45.3252833" lon="7.8811667"><ele>314.0</ele><time>2026-05-01T14:40:37.951Z</time></trkpt><trkpt lat="45.3253983" lon="7.8812633"><ele>314.5</ele><time>2026-05-01T14:40:38.95Z</time></trkpt><trkpt lat="45.3255233" lon="7.8813417"><ele>315.0</ele><time>2026-05-01T14:40:39.951Z</time></trkpt><trkpt lat="45.3256517" lon="7.88139"><ele>313.75</ele><time>2026-05-01T14:40:40.951Z</time></trkpt><trkpt lat="45.3257733" lon="7.88143"><ele>312.5</ele><time>2026-05-01T14:40:41.95Z</time></trkpt><trkpt lat="45.3259033" lon="7.881465"><ele>311.25</ele><time>2026-05-01T14:40:42.95Z</time></trkpt><trkpt lat="45.3260317" lon="7.8814983"><ele>310.0</ele><time>2026-05-01T14:40:43.95Z</time></trkpt><trkpt lat="45.3261483" lon="7.8815183"><ele>310.0</ele><time>2026-05-01T14:40:44.95Z</time></trkpt><trkpt lat="45.32626" lon="7.8815467"><ele>310.0</ele><time>2026-05-01T14:40:45.951Z</time></trkpt><trkpt lat="45.3263733" lon="7.8815867"><ele>310.0</ele><time>2026-05-01T14:40:46.95Z</time></trkpt><trkpt lat="45.326485" lon="7.8816267"><ele>310.0</ele><time>2026-05-01T14:40:47.95Z</time></trkpt><trkpt lat="45.326595" lon="7.8816633"><ele>309.5</ele><time>2026-05-01T14:40:48.951Z</time></trkpt><trkpt lat="45.3266883" lon="7.8816933"><ele>309.0</ele><time>2026-05-01T14:40:49.95Z</time></trkpt><trkpt lat="45.3267783" lon="7.881725"><ele>308.5</ele><time>2026-05-01T14:40:50.951Z</time></trkpt><trkpt lat="45.32686" lon="7.8817533"><ele>308.0</ele><time>2026-05-01T14:40:51.951Z</time></trkpt><trkpt lat="45.3269417" lon="7.8817783"><ele>307.5</ele><time>2026-05-01T14:40:52.95Z</time></trkpt><trkpt lat="45.3270217" lon="7.8818017"><ele>307.0</ele><time>2026-05-01T14:40:53.95Z</time></trkpt><trkpt lat="45.3271" lon="7.881825"><ele>307.0</ele><time>2026-05-01T14:40:54.951Z</time></trkpt><trkpt lat="45.3271783" lon="7.8818467"><ele>307.0</ele><time>2026-05-01T14:40:55.951Z</time></trkpt><trkpt lat="45.3272667" lon="7.8818483"><ele>307.0</ele><time>2026-05-01T14:40:56.95Z</time></trkpt><trkpt lat="45.3273733" lon="7.88187"><ele>307.0</ele><time>2026-05-01T14:40:57.95Z</time></trkpt><trkpt lat="45.327505" lon="7.8819267"><ele>307.0</ele><time>2026-05-01T14:40:58.951Z</time></trkpt><trkpt lat="45.327645" lon="7.8819767"><ele>307.0</ele><time>2026-05-01T14:40:59.951Z</time></trkpt><trkpt lat="45.3277933" lon="7.882025"><ele>307.0</ele><time>2026-05-01T14:41:00.951Z</time></trkpt><trkpt lat="45.3279433" lon="7.88207"><ele>307.0</ele><time>2026-05-01T14:41:01.951Z</time></trkpt><trkpt lat="45.3280833" lon="7.8821067"><ele>307.0</ele><time>2026-05-01T14:41:02.951Z</time></trkpt><trkpt lat="45.32822" lon="7.8821517"><ele>310.0</ele><time>2026-05-01T14:41:03.95Z</time></trkpt><trkpt lat="45.328355" lon="7.8822167"><ele>313.0</ele><time>2026-05-01T14:41:04.951Z</time></trkpt><trkpt lat="45.3284917" lon="7.8823117"><ele>316.0</ele><time>2026-05-01T14:41:05.95Z</time></trkpt><trkpt lat="45.3286167" lon="7.8824267"><ele>319.0</ele><time>2026-05-01T14:41:06.95Z</time></trkpt><trkpt lat="45.3287167" lon="7.8825667"><ele>317.0</ele><time>2026-05-01T14:41:07.951Z</time></trkpt><trkpt lat="45.3287983" lon="7.8827317"><ele>315.0</ele><time>2026-05-01T14:41:08.95Z</time></trkpt><trkpt lat="45.328865" lon="7.8829117"><ele>313.0</ele><time>2026-05-01T14:41:09.95Z</time></trkpt><trkpt lat="45.3289233" lon="7.8831117"><ele>311.0</ele><time>2026-05-01T14:41:10.95Z</time></trkpt><trkpt lat="45.3289983" lon="7.8832983"><ele>312.75</ele><time>2026-05-01T14:41:11.95Z</time></trkpt><trkpt lat="45.3290783" lon="7.88346"><ele>314.5</ele><time>2026-05-01T14:41:12.95Z</time></trkpt><trkpt lat="45.32917" lon="7.8835967"><ele>316.25</ele><time>2026-05-01T14:41:13.95Z</time></trkpt><trkpt lat="45.3292533" lon="7.8837233"><ele>318.0</ele><time>2026-05-01T14:41:14.951Z</time></trkpt><trkpt lat="45.3293317" lon="7.883845"><ele>318.0</ele><time>2026-05-01T14:41:15.95Z</time></trkpt><trkpt lat="45.32941" lon="7.8839667"><ele>318.0</ele><time>2026-05-01T14:41:16.95Z</time></trkpt><trkpt lat="45.32949" lon="7.8840867"><ele>318.0</ele><time>2026-05-01T14:41:17.951Z</time></trkpt><trkpt lat="45.3295683" lon="7.88421"><ele>318.0</ele><time>2026-05-01T14:41:18.95Z</time></trkpt><trkpt lat="45.3296483" lon="7.8843383"><ele>317.5</ele><time>2026-05-01T14:41:19.951Z</time></trkpt><trkpt lat="45.329725" lon="7.8844683"><ele>317.0</ele><time>2026-05-01T14:41:20.95Z</time></trkpt><trkpt lat="45.3298067" lon="7.8845833"><ele>316.5</ele><time>2026-05-01T14:41:21.95Z</time></trkpt><trkpt lat="45.3298867" lon="7.8847017"><ele>316.0</ele><time>2026-05-01T14:41:22.95Z</time></trkpt><trkpt lat="45.3299667" lon="7.8848183"><ele>316.0</ele><time>2026-05-01T14:41:23.95Z</time></trkpt><trkpt lat="45.330045" lon="7.8849467"><ele>316.0</ele><time>2026-05-01T14:41:24.951Z</time></trkpt><trkpt lat="45.3301283" lon="7.8850717"><ele>316.0</ele><time>2026-05-01T14:41:25.951Z</time></trkpt><trkpt lat="45.3302083" lon="7.8851933"><ele>316.0</ele><time>2026-05-01T14:41:26.951Z</time></trkpt><trkpt lat="45.33029" lon="7.8853183"><ele>316.0</ele><time>2026-05-01T14:41:27.951Z</time></trkpt><trkpt lat="45.33037" lon="7.885455"><ele>316.0</ele><time>2026-05-01T14:41:28.95Z</time></trkpt><trkpt lat="45.33046" lon="7.8855983"><ele>316.0</ele><time>2026-05-01T14:41:29.95Z</time></trkpt><trkpt lat="45.330565" lon="7.8857517"><ele>316.0</ele><time>2026-05-01T14:41:30.95Z</time></trkpt><trkpt lat="45.330665" lon="7.8858983"><ele>313.0</ele><time>2026-05-01T14:41:31.95Z</time></trkpt><trkpt lat="45.3307633" lon="7.886025"><ele>310.0</ele><time>2026-05-01T14:41:32.95Z</time></trkpt><trkpt lat="45.3308567" lon="7.88613"><ele>307.0</ele><time>2026-05-01T14:41:33.95Z</time></trkpt><trkpt lat="45.330945" lon="7.88622"><ele>304.0</ele><time>2026-05-01T14:41:34.951Z</time></trkpt><trkpt lat="45.33103" lon="7.886295"><ele>304.0</ele><time>2026-05-01T14:41:35.951Z</time></trkpt><trkpt lat="45.3311067" lon="7.88636"><ele>304.0</ele><time>2026-05-01T14:41:36.95Z</time></trkpt><trkpt lat="45.3311817" lon="7.8864133"><ele>304.0</ele><time>2026-05-01T14:41:37.951Z</time></trkpt><trkpt lat="45.33125" lon="7.886455"><ele>304.0</ele><time>2026-05-01T14:41:38.95Z</time></trkpt><trkpt lat="45.3313117" lon="7.8864917"><ele>304.0</ele><time>2026-05-01T14:41:39.95Z</time></trkpt><trkpt lat="45.3314067" lon="7.8865483"><ele>304.0</ele><time>2026-05-01T14:41:41.951Z</time></trkpt><trkpt lat="45.331465" lon="7.8865833"><ele>305.0</ele><time>2026-05-01T14:41:43.95Z</time></trkpt><trkpt lat="45.3315483" lon="7.8866033"><ele>306.0</ele><time>2026-05-01T14:41:52.95Z</time></trkpt><trkpt lat="45.331675" lon="7.886575"><ele>307.0</ele><time>2026-05-01T14:41:54.95Z</time></trkpt><trkpt lat="45.33177" lon="7.8865517"><ele>308.0</ele><time>2026-05-01T14:41:55.951Z</time></trkpt><trkpt lat="45.3318617" lon="7.8865433"><ele>309.0</ele><time>2026-05-01T14:41:56.95Z</time></trkpt><trkpt lat="45.3319417" lon="7.886545"><ele>309.00000000000006</ele><time>2026-05-01T14:41:57.95Z</time></trkpt><trkpt lat="45.332015" lon="7.8865433"><ele>309.0</ele><time>2026-05-01T14:41:58.95Z</time></trkpt><trkpt lat="45.332085" lon="7.88654"><ele>309.0</ele><time>2026-05-01T14:41:59.95Z</time></trkpt><trkpt lat="45.332155" lon="7.8865383"><ele>309.0</ele><time>2026-05-01T14:42:00.95Z</time></trkpt><trkpt lat="45.3322283" lon="7.8865433"><ele>309.0</ele><time>2026-05-01T14:42:01.95Z</time></trkpt><trkpt lat="45.3323" lon="7.886555"><ele>309.00000000000006</ele><time>2026-05-01T14:42:02.95Z</time></trkpt><trkpt lat="45.33237" lon="7.886565"><ele>309.0</ele><time>2026-05-01T14:42:03.95Z</time></trkpt><trkpt lat="45.3324333" lon="7.8865783"><ele>310.0</ele><time>2026-05-01T14:42:04.95Z</time></trkpt><trkpt lat="45.3324967" lon="7.88658"><ele>311.0</ele><time>2026-05-01T14:42:05.95Z</time></trkpt><trkpt lat="45.332615" lon="7.8865767"><ele>312.0</ele><time>2026-05-01T14:42:07.95Z</time></trkpt><trkpt lat="45.33268" lon="7.8865733"><ele>313.0</ele><time>2026-05-01T14:42:08.951Z</time></trkpt><trkpt lat="45.3327483" lon="7.8865633"><ele>314.0</ele><time>2026-05-01T14:42:09.95Z</time></trkpt><trkpt lat="45.3328783" lon="7.8865267"><ele>315.0</ele><time>2026-05-01T14:42:11.95Z</time></trkpt><trkpt lat="45.3329467" lon="7.88651"><ele>315.5</ele><time>2026-05-01T14:42:12.95Z</time></trkpt><trkpt lat="45.3330833" lon="7.8864917"><ele>316.0</ele><time>2026-05-01T14:42:14.95Z</time></trkpt><trkpt lat="45.3331517" lon="7.8864967"><ele>316.5</ele><time>2026-05-01T14:42:15.95Z</time></trkpt><trkpt lat="45.33322" lon="7.8865083"><ele>317.0</ele><time>2026-05-01T14:42:16.95Z</time></trkpt><trkpt lat="45.3332833" lon="7.8865033"><ele>317.5</ele><time>2026-05-01T14:42:17.951Z</time></trkpt><trkpt lat="45.3333633" lon="7.8865017"><ele>318.0</ele><time>2026-05-01T14:42:18.951Z</time></trkpt><trkpt lat="45.3334417" lon="7.8864833"><ele>318.0</ele><time>2026-05-01T14:42:19.95Z</time></trkpt><trkpt lat="45.33355" lon="7.8864333"><ele>318.0</ele><time>2026-05-01T14:42:20.95Z</time></trkpt><trkpt lat="45.3336717" lon="7.8863733"><ele>318.0</ele><time>2026-05-01T14:42:21.95Z</time></trkpt><trkpt lat="45.3338133" lon="7.8862867"><ele>318.0</ele><time>2026-05-01T14:42:22.951Z</time></trkpt><trkpt lat="45.33394" lon="7.8862083"><ele>318.0</ele><time>2026-05-01T14:42:23.95Z</time></trkpt><trkpt lat="45.3340533" lon="7.886135"><ele>318.0</ele><time>2026-05-01T14:42:24.95Z</time></trkpt><trkpt lat="45.334155" lon="7.886055"><ele>318.0</ele><time>2026-05-01T14:42:25.95Z</time></trkpt><trkpt lat="45.3342283" lon="7.8859733"><ele>318.0</ele><time>2026-05-01T14:42:26.95Z</time></trkpt><trkpt lat="45.3342883" lon="7.8858917"><ele>318.0</ele><time>2026-05-01T14:42:27.95Z</time></trkpt><trkpt lat="45.3343383" lon="7.88579"><ele>319.0</ele><time>2026-05-01T14:42:29.951Z</time></trkpt><trkpt lat="45.3343817" lon="7.8857033"><ele>320.0</ele><time>2026-05-01T14:42:32.951Z</time></trkpt><trkpt lat="45.33446" lon="7.8856217"><ele>321.0</ele><time>2026-05-01T14:42:35.95Z</time></trkpt><trkpt lat="45.3345117" lon="7.8855367"><ele>322.0</ele><time>2026-05-01T14:42:37.95Z</time></trkpt><trkpt lat="45.33458" lon="7.88543"><ele>323.0</ele><time>2026-05-01T14:42:39.95Z</time></trkpt><trkpt lat="45.3346317" lon="7.8853633"><ele>324.0</ele><time>2026-05-01T14:42:40.95Z</time></trkpt><trkpt lat="45.3346967" lon="7.8852817"><ele>324.1666666666667</ele><time>2026-05-01T14:42:41.95Z</time></trkpt><trkpt lat="45.3347617" lon="7.8852017"><ele>324.3333333333333</ele><time>2026-05-01T14:42:42.951Z</time></trkpt><trkpt lat="45.3348233" lon="7.8851317"><ele>324.5</ele><time>2026-05-01T14:42:43.95Z</time></trkpt><trkpt lat="45.33488" lon="7.8850767"><ele>324.66666666666663</ele><time>2026-05-01T14:42:44.95Z</time></trkpt><trkpt lat="45.3349433" lon="7.88501"><ele>324.8333333333333</ele><time>2026-05-01T14:42:45.95Z</time></trkpt><trkpt lat="45.3350017" lon="7.8849417"><ele>325.0</ele><time>2026-05-01T14:42:46.95Z</time></trkpt><trkpt lat="45.3350633" lon="7.8848617"><ele>325.0</ele><time>2026-05-01T14:42:47.95Z</time></trkpt><trkpt lat="45.335165" lon="7.88473"><ele>325.0</ele><time>2026-05-01T14:42:49.95Z</time></trkpt><trkpt lat="45.3352267" lon="7.884675"><ele>325.0</ele><time>2026-05-01T14:42:50.95Z</time></trkpt><trkpt lat="45.3352867" lon="7.88461"><ele>325.0</ele><time>2026-05-01T14:42:51.95Z</time></trkpt><trkpt lat="45.3353483" lon="7.8845283"><ele>325.0</ele><time>2026-05-01T14:42:52.95Z</time></trkpt><trkpt lat="45.3354" lon="7.8844467"><ele>325.0</ele><time>2026-05-01T14:42:53.951Z</time></trkpt><trkpt lat="45.3354433" lon="7.8843567"><ele>325.0</ele><time>2026-05-01T14:42:54.95Z</time></trkpt><trkpt lat="45.335475" lon="7.8842683"><ele>325.0</ele><time>2026-05-01T14:42:55.95Z</time></trkpt><trkpt lat="45.335505" lon="7.8841717"><ele>325.0</ele><time>2026-05-01T14:42:56.95Z</time></trkpt><trkpt lat="45.3355333" lon="7.8840783"><ele>325.0</ele><time>2026-05-01T14:42:57.951Z</time></trkpt><trkpt lat="45.3355667" lon="7.8839933"><ele>325.0</ele><time>2026-05-01T14:42:58.95Z</time></trkpt><trkpt lat="45.3355967" lon="7.88391"><ele>325.0</ele><time>2026-05-01T14:42:59.951Z</time></trkpt><trkpt lat="45.3356317" lon="7.8838283"><ele>325.0</ele><time>2026-05-01T14:43:00.95Z</time></trkpt><trkpt lat="45.3356833" lon="7.883705"><ele>324.6</ele><time>2026-05-01T14:43:02.95Z</time></trkpt><trkpt lat="45.335735" lon="7.8836267"><ele>324.2</ele><time>2026-05-01T14:43:04.95Z</time></trkpt><trkpt lat="45.3358467" lon="7.8834433"><ele>323.79999999999995</ele><time>2026-05-01T14:43:40.951Z</time></trkpt><trkpt lat="45.3359017" lon="7.88331"><ele>323.4</ele><time>2026-05-01T14:43:42.95Z</time></trkpt><trkpt lat="45.3359333" lon="7.8832317"><ele>323.0</ele><time>2026-05-01T14:43:43.951Z</time></trkpt><trkpt lat="45.3359617" lon="7.88315"><ele>324.7142857142857</ele><time>2026-05-01T14:43:44.95Z</time></trkpt><trkpt lat="45.3359883" lon="7.883065"><ele>326.42857142857144</ele><time>2026-05-01T14:43:45.95Z</time></trkpt><trkpt lat="45.3360217" lon="7.8829717"><ele>328.1428571428571</ele><time>2026-05-01T14:43:46.95Z</time></trkpt><trkpt lat="45.336055" lon="7.8828833"><ele>329.8571428571429</ele><time>2026-05-01T14:43:47.95Z</time></trkpt><trkpt lat="45.336095" lon="7.882795"><ele>331.57142857142856</ele><time>2026-05-01T14:43:48.951Z</time></trkpt><trkpt lat="45.336145" lon="7.8826983"><ele>333.2857142857143</ele><time>2026-05-01T14:43:49.95Z</time></trkpt><trkpt lat="45.3362" lon="7.8826167"><ele>335.0</ele><time>2026-05-01T14:43:50.95Z</time></trkpt><trkpt lat="45.3362517" lon="7.882525"><ele>335.1666666666667</ele><time>2026-05-01T14:43:51.95Z</time></trkpt><trkpt lat="45.3363033" lon="7.88242"><ele>335.33333333333337</ele><time>2026-05-01T14:43:52.95Z</time></trkpt><trkpt lat="45.3363567" lon="7.882335"><ele>335.5</ele><time>2026-05-01T14:43:53.95Z</time></trkpt><trkpt lat="45.3364233" lon="7.8822467"><ele>335.6666666666667</ele><time>2026-05-01T14:43:54.951Z</time></trkpt><trkpt lat="45.3364917" lon="7.8821633"><ele>335.8333333333333</ele><time>2026-05-01T14:43:55.95Z</time></trkpt><trkpt lat="45.336565" lon="7.8820817"><ele>336.0</ele><time>2026-05-01T14:43:56.95Z</time></trkpt><trkpt lat="45.336635" lon="7.881995"><ele>336.0</ele><time>2026-05-01T14:43:57.95Z</time></trkpt><trkpt lat="45.3367117" lon="7.8819083"><ele>336.0</ele><time>2026-05-01T14:43:58.95Z</time></trkpt><trkpt lat="45.33677" lon="7.881825"><ele>336.0</ele><time>2026-05-01T14:43:59.951Z</time></trkpt><trkpt lat="45.336825" lon="7.8817617"><ele>336.0</ele><time>2026-05-01T14:44:00.95Z</time></trkpt><trkpt lat="45.3368717" lon="7.881695"><ele>336.0</ele><time>2026-05-01T14:44:01.951Z</time></trkpt><trkpt lat="45.3369117" lon="7.8816133"><ele>336.0</ele><time>2026-05-01T14:44:02.95Z</time></trkpt><trkpt lat="45.33694" lon="7.8815183"><ele>338.6666666666667</ele><time>2026-05-01T14:44:03.95Z</time></trkpt><trkpt lat="45.3369617" lon="7.8814133"><ele>341.3333333333333</ele><time>2026-05-01T14:44:04.95Z</time></trkpt><trkpt lat="45.3369767" lon="7.881315"><ele>344.0</ele><time>2026-05-01T14:44:05.95Z</time></trkpt><trkpt lat="45.33698" lon="7.8812167"><ele>346.66666666666663</ele><time>2026-05-01T14:44:06.95Z</time></trkpt><trkpt lat="45.33698" lon="7.8810567"><ele>349.3333333333333</ele><time>2026-05-01T14:44:08.951Z</time></trkpt><trkpt lat="45.33698" lon="7.8809383"><ele>352.0</ele><time>2026-05-01T14:44:10.95Z</time></trkpt><trkpt lat="45.33699" lon="7.8807333"><ele>353.57142857142856</ele><time>2026-05-01T14:44:23.951Z</time></trkpt><trkpt lat="45.3369983" lon="7.8806083"><ele>355.1428571428571</ele><time>2026-05-01T14:44:25.95Z</time></trkpt><trkpt lat="45.337005" lon="7.8805133"><ele>356.71428571428567</ele><time>2026-05-01T14:44:27.95Z</time></trkpt><trkpt lat="45.3370217" lon="7.88041"><ele>358.2857142857143</ele><time>2026-05-01T14:44:29.95Z</time></trkpt><trkpt lat="45.3370317" lon="7.8803033"><ele>359.85714285714283</ele><time>2026-05-01T14:44:31.951Z</time></trkpt><trkpt lat="45.337065" lon="7.8802033"><ele>361.4285714285714</ele><time>2026-05-01T14:44:34.95Z</time></trkpt><trkpt lat="45.337095" lon="7.8801233"><ele>363.0</ele><time>2026-05-01T14:44:36.95Z</time></trkpt><trkpt lat="45.3371417" lon="7.87996"><ele>363.8333333333333</ele><time>2026-05-01T14:44:38.95Z</time></trkpt><trkpt lat="45.33717" lon="7.8798667"><ele>364.6666666666667</ele><time>2026-05-01T14:44:39.95Z</time></trkpt><trkpt lat="45.3372067" lon="7.8797667"><ele>365.5</ele><time>2026-05-01T14:44:40.95Z</time></trkpt><trkpt lat="45.337245" lon="7.8796783"><ele>366.33333333333337</ele><time>2026-05-01T14:44:41.95Z</time></trkpt><trkpt lat="45.33729" lon="7.8795833"><ele>367.1666666666667</ele><time>2026-05-01T14:44:42.95Z</time></trkpt><trkpt lat="45.33735" lon="7.8795017"><ele>368.0</ele><time>2026-05-01T14:44:43.95Z</time></trkpt><trkpt lat="45.3374183" lon="7.8794167"><ele>366.1666666666667</ele><time>2026-05-01T14:44:44.95Z</time></trkpt><trkpt lat="45.3374783" lon="7.879335"><ele>364.33333333333337</ele><time>2026-05-01T14:44:45.951Z</time></trkpt><trkpt lat="45.3375483" lon="7.8792583"><ele>362.5</ele><time>2026-05-01T14:44:46.951Z</time></trkpt><trkpt lat="45.3376267" lon="7.8791983"><ele>360.6666666666667</ele><time>2026-05-01T14:44:47.95Z</time></trkpt><trkpt lat="45.3377117" lon="7.87916"><ele>358.8333333333333</ele><time>2026-05-01T14:44:48.951Z</time></trkpt><trkpt lat="45.337805" lon="7.8791233"><ele>357.0</ele><time>2026-05-01T14:44:49.95Z</time></trkpt><trkpt lat="45.33791" lon="7.87907"><ele>357.0</ele><time>2026-05-01T14:44:50.95Z</time></trkpt><trkpt lat="45.3380233" lon="7.8790133"><ele>357.0</ele><time>2026-05-01T14:44:51.951Z</time></trkpt><trkpt lat="45.338115" lon="7.8789617"><ele>357.0</ele><time>2026-05-01T14:44:52.95Z</time></trkpt><trkpt lat="45.3382083" lon="7.8789117"><ele>357.0</ele><time>2026-05-01T14:44:53.95Z</time></trkpt><trkpt lat="45.3382967" lon="7.8788617"><ele>357.0</ele><time>2026-05-01T14:44:54.951Z</time></trkpt><trkpt lat="45.338385" lon="7.87881"><ele>356.8</ele><time>2026-05-01T14:44:55.95Z</time></trkpt><trkpt lat="45.3384617" lon="7.8787633"><ele>356.6</ele><time>2026-05-01T14:44:56.95Z</time></trkpt><trkpt lat="45.3385433" lon="7.8786867"><ele>356.40000000000003</ele><time>2026-05-01T14:44:57.95Z</time></trkpt><trkpt lat="45.33861" lon="7.878595"><ele>356.20000000000005</ele><time>2026-05-01T14:44:58.95Z</time></trkpt><trkpt lat="45.33866" lon="7.8785317"><ele>356.0</ele><time>2026-05-01T14:44:59.95Z</time></trkpt><trkpt lat="45.3387367" lon="7.878395"><ele>357.1666666666667</ele><time>2026-05-01T14:45:01.951Z</time></trkpt><trkpt lat="45.33877" lon="7.8783033"><ele>358.33333333333337</ele><time>2026-05-01T14:45:02.95Z</time></trkpt><trkpt lat="45.3388033" lon="7.8782133"><ele>359.5</ele><time>2026-05-01T14:45:03.95Z</time></trkpt><trkpt lat="45.3388433" lon="7.878125"><ele>360.6666666666667</ele><time>2026-05-01T14:45:04.95Z</time></trkpt><trkpt lat="45.3388783" lon="7.8780467"><ele>361.8333333333333</ele><time>2026-05-01T14:45:05.95Z</time></trkpt><trkpt lat="45.338915" lon="7.8779683"><ele>363.0</ele><time>2026-05-01T14:45:06.95Z</time></trkpt><trkpt lat="45.3389933" lon="7.8778583"><ele>363.0</ele><time>2026-05-01T14:45:08.95Z</time></trkpt><trkpt lat="45.33907" lon="7.87779"><ele>363.0</ele><time>2026-05-01T14:45:10.951Z</time></trkpt><trkpt lat="45.3391533" lon="7.8777367"><ele>363.0</ele><time>2026-05-01T14:45:12.951Z</time></trkpt><trkpt lat="45.3392533" lon="7.8777017"><ele>363.0</ele><time>2026-05-01T14:45:14.95Z</time></trkpt><trkpt lat="45.33932" lon="7.8776767"><ele>363.0</ele><time>2026-05-01T14:45:15.95Z</time></trkpt><trkpt lat="45.3393933" lon="7.8776433"><ele>363.0</ele><time>2026-05-01T14:45:16.95Z</time></trkpt><trkpt lat="45.3394883" lon="7.8775933"><ele>363.3333333333333</ele><time>2026-05-01T14:45:17.951Z</time></trkpt><trkpt lat="45.3395883" lon="7.8775467"><ele>363.6666666666667</ele><time>2026-05-01T14:45:18.95Z</time></trkpt><trkpt lat="45.3396767" lon="7.877505"><ele>364.0</ele><time>2026-05-01T14:45:19.95Z</time></trkpt><trkpt lat="45.3397633" lon="7.877455"><ele>364.33333333333337</ele><time>2026-05-01T14:45:20.951Z</time></trkpt><trkpt lat="45.339835" lon="7.877415"><ele>364.6666666666667</ele><time>2026-05-01T14:45:21.951Z</time></trkpt><trkpt lat="45.3399067" lon="7.8773667"><ele>365.0</ele><time>2026-05-01T14:45:22.95Z</time></trkpt><trkpt lat="45.3399767" lon="7.8773133"><ele>365.00000000000006</ele><time>2026-05-01T14:45:23.95Z</time></trkpt><trkpt lat="45.3400467" lon="7.8772483"><ele>365.0</ele><time>2026-05-01T14:45:24.951Z</time></trkpt><trkpt lat="45.3401117" lon="7.8771783"><ele>365.0</ele><time>2026-05-01T14:45:25.95Z</time></trkpt><trkpt lat="45.3401717" lon="7.8771233"><ele>365.0</ele><time>2026-05-01T14:45:26.951Z</time></trkpt><trkpt lat="45.3402283" lon="7.8770683"><ele>365.0</ele><time>2026-05-01T14:45:27.95Z</time></trkpt><trkpt lat="45.340285" lon="7.87701"><ele>365.00000000000006</ele><time>2026-05-01T14:45:28.95Z</time></trkpt><trkpt lat="45.340335" lon="7.8769467"><ele>365.0</ele><time>2026-05-01T14:45:29.951Z</time></trkpt><trkpt lat="45.3403817" lon="7.8768633"><ele>365.0</ele><time>2026-05-01T14:45:30.95Z</time></trkpt><trkpt lat="45.3404317" lon="7.8768033"><ele>365.0</ele><time>2026-05-01T14:45:31.95Z</time></trkpt><trkpt lat="45.3404883" lon="7.87674"><ele>365.0</ele><time>2026-05-01T14:45:32.951Z</time></trkpt><trkpt lat="45.3405567" lon="7.8766783"><ele>365.0</ele><time>2026-05-01T14:45:33.95Z</time></trkpt><trkpt lat="45.3406333" lon="7.8766017"><ele>365.0</ele><time>2026-05-01T14:45:34.951Z</time></trkpt><trkpt lat="45.3407117" lon="7.8765067"><ele>365.0</ele><time>2026-05-01T14:45:35.95Z</time></trkpt><trkpt lat="45.34079" lon="7.876405"><ele>364.1666666666667</ele><time>2026-05-01T14:45:36.95Z</time></trkpt><trkpt lat="45.340865" lon="7.8762933"><ele>363.33333333333337</ele><time>2026-05-01T14:45:37.951Z</time></trkpt><trkpt lat="45.340925" lon="7.8761933"><ele>362.5</ele><time>2026-05-01T14:45:38.95Z</time></trkpt><trkpt lat="45.3409833" lon="7.8761033"><ele>361.6666666666667</ele><time>2026-05-01T14:45:39.951Z</time></trkpt><trkpt lat="45.3410383" lon="7.8760233"><ele>360.8333333333333</ele><time>2026-05-01T14:45:40.95Z</time></trkpt><trkpt lat="45.341095" lon="7.8759483"><ele>360.0</ele><time>2026-05-01T14:45:41.95Z</time></trkpt><trkpt lat="45.3411433" lon="7.8758833"><ele>359.2</ele><time>2026-05-01T14:45:42.95Z</time></trkpt><trkpt lat="45.3412267" lon="7.8757617"><ele>358.4</ele><time>2026-05-01T14:45:44.95Z</time></trkpt><trkpt lat="45.3413283" lon="7.8756583"><ele>357.6</ele><time>2026-05-01T14:45:46.95Z</time></trkpt><trkpt lat="45.34138" lon="7.8756067"><ele>356.8</ele><time>2026-05-01T14:45:47.951Z</time></trkpt><trkpt lat="45.341435" lon="7.8755433"><ele>356.0</ele><time>2026-05-01T14:45:48.95Z</time></trkpt><trkpt lat="45.3414917" lon="7.8754617"><ele>356.0</ele><time>2026-05-01T14:45:49.95Z</time></trkpt><trkpt lat="45.3415567" lon="7.8753717"><ele>356.0</ele><time>2026-05-01T14:45:50.951Z</time></trkpt><trkpt lat="45.3416183" lon="7.875285"><ele>356.0</ele><time>2026-05-01T14:45:51.95Z</time></trkpt><trkpt lat="45.34168" lon="7.8751867"><ele>356.0</ele><time>2026-05-01T14:45:52.95Z</time></trkpt><trkpt lat="45.3417333" lon="7.87508"><ele>356.0</ele><time>2026-05-01T14:45:53.95Z</time></trkpt><trkpt lat="45.3417867" lon="7.8749733"><ele>358.6</ele><time>2026-05-01T14:45:54.95Z</time></trkpt><trkpt lat="45.3418417" lon="7.8748483"><ele>361.20000000000005</ele><time>2026-05-01T14:45:55.95Z</time></trkpt><trkpt lat="45.34189" lon="7.8747233"><ele>363.79999999999995</ele><time>2026-05-01T14:45:56.95Z</time></trkpt><trkpt lat="45.3419383" lon="7.8746017"><ele>366.4</ele><time>2026-05-01T14:45:57.951Z</time></trkpt><trkpt lat="45.3419867" lon="7.874495"><ele>369.0</ele><time>2026-05-01T14:45:58.95Z</time></trkpt><trkpt lat="45.3420183" lon="7.874415"><ele>369.0</ele><time>2026-05-01T14:45:59.951Z</time></trkpt><trkpt lat="45.34205" lon="7.87433"><ele>369.0</ele><time>2026-05-01T14:46:00.95Z</time></trkpt><trkpt lat="45.3420783" lon="7.8742483"><ele>369.0</ele><time>2026-05-01T14:46:01.95Z</time></trkpt><trkpt lat="45.342115" lon="7.8741567"><ele>369.0</ele><time>2026-05-01T14:46:02.95Z</time></trkpt><trkpt lat="45.3421667" lon="7.8740333"><ele>369.0</ele><time>2026-05-01T14:46:04.95Z</time></trkpt><trkpt lat="45.3421967" lon="7.87395"><ele>369.0</ele><time>2026-05-01T14:46:06.951Z</time></trkpt><trkpt lat="45.3422133" lon="7.8738367"><ele>368.5</ele><time>2026-05-01T14:46:10.95Z</time></trkpt><trkpt lat="45.3421567" lon="7.8737133"><ele>368.0</ele><time>2026-05-01T14:46:41.95Z</time></trkpt><trkpt lat="45.3422267" lon="7.8737483"><ele>367.5</ele><time>2026-05-01T14:46:46.95Z</time></trkpt><trkpt lat="45.342285" lon="7.8736733"><ele>367.0</ele><time>2026-05-01T14:46:51.951Z</time></trkpt><trkpt lat="45.342315" lon="7.8735367"><ele>366.5</ele><time>2026-05-01T14:46:53.95Z</time></trkpt><trkpt lat="45.342335" lon="7.8734467"><ele>366.0</ele><time>2026-05-01T14:46:54.95Z</time></trkpt><trkpt lat="45.3423617" lon="7.8733567"><ele>366.0</ele><time>2026-05-01T14:46:55.951Z</time></trkpt><trkpt lat="45.3423867" lon="7.8732683"><ele>366.0</ele><time>2026-05-01T14:46:56.95Z</time></trkpt><trkpt lat="45.34241" lon="7.8731817"><ele>366.0</ele><time>2026-05-01T14:46:57.95Z</time></trkpt><trkpt lat="45.3424333" lon="7.8730917"><ele>366.0</ele><time>2026-05-01T14:46:58.95Z</time></trkpt><trkpt lat="45.34245" lon="7.8730017"><ele>366.0</ele><time>2026-05-01T14:46:59.95Z</time></trkpt><trkpt lat="45.3424633" lon="7.8728967"><ele>366.0</ele><time>2026-05-01T14:47:00.95Z</time></trkpt><trkpt lat="45.34248" lon="7.872785"><ele>366.0</ele><time>2026-05-01T14:47:01.95Z</time></trkpt><trkpt lat="45.3424933" lon="7.8726683"><ele>366.8333333333333</ele><time>2026-05-01T14:47:02.95Z</time></trkpt><trkpt lat="45.3425067" lon="7.8725617"><ele>367.6666666666667</ele><time>2026-05-01T14:47:03.951Z</time></trkpt><trkpt lat="45.342515" lon="7.872425"><ele>368.5</ele><time>2026-05-01T14:47:05.95Z</time></trkpt><trkpt lat="45.3425083" lon="7.872325"><ele>369.33333333333337</ele><time>2026-05-01T14:47:07.95Z</time></trkpt><trkpt lat="45.342495" lon="7.8722017"><ele>370.1666666666667</ele><time>2026-05-01T14:47:09.951Z</time></trkpt><trkpt lat="45.3424483" lon="7.8721333"><ele>371.0</ele><time>2026-05-01T14:47:12.951Z</time></trkpt><trkpt lat="45.3423767" lon="7.87216"><ele>371.0</ele><time>2026-05-01T14:47:15.95Z</time></trkpt><trkpt lat="45.342285" lon="7.8721967"><ele>371.0</ele><time>2026-05-01T14:47:17.95Z</time></trkpt><trkpt lat="45.3422183" lon="7.8722117"><ele>371.0</ele><time>2026-05-01T14:47:18.95Z</time></trkpt><trkpt lat="45.3421417" lon="7.8722333"><ele>371.0</ele><time>2026-05-01T14:47:19.951Z</time></trkpt><trkpt lat="45.3420567" lon="7.8722733"><ele>371.0</ele><time>2026-05-01T14:47:20.951Z</time></trkpt><trkpt lat="45.34198" lon="7.8723117"><ele>371.0</ele><time>2026-05-01T14:47:21.95Z</time></trkpt><trkpt lat="45.3419033" lon="7.872365"><ele>372.7142857142857</ele><time>2026-05-01T14:47:22.95Z</time></trkpt><trkpt lat="45.3418417" lon="7.87242"><ele>374.42857142857144</ele><time>2026-05-01T14:47:23.95Z</time></trkpt><trkpt lat="45.3417817" lon="7.87247"><ele>376.1428571428571</ele><time>2026-05-01T14:47:24.95Z</time></trkpt><trkpt lat="45.34172" lon="7.8725317"><ele>377.8571428571429</ele><time>2026-05-01T14:47:25.951Z</time></trkpt><trkpt lat="45.3416683" lon="7.8725967"><ele>379.57142857142856</ele><time>2026-05-01T14:47:26.951Z</time></trkpt><trkpt lat="45.3416267" lon="7.872665"><ele>381.2857142857143</ele><time>2026-05-01T14:47:27.951Z</time></trkpt><trkpt lat="45.3415733" lon="7.8727417"><ele>383.0</ele><time>2026-05-01T14:47:28.951Z</time></trkpt><trkpt lat="45.3415233" lon="7.872815"><ele>383.0</ele><time>2026-05-01T14:47:29.95Z</time></trkpt><trkpt lat="45.341475" lon="7.8729067"><ele>383.0</ele><time>2026-05-01T14:47:30.951Z</time></trkpt><trkpt lat="45.3414317" lon="7.8729917"><ele>383.0</ele><time>2026-05-01T14:47:31.951Z</time></trkpt><trkpt lat="45.3413617" lon="7.873115"><ele>383.0</ele><time>2026-05-01T14:47:33.951Z</time></trkpt><trkpt lat="45.34132" lon="7.8731833"><ele>383.0</ele><time>2026-05-01T14:47:35.95Z</time></trkpt><trkpt lat="45.341205" lon="7.87326"><ele>384.1666666666667</ele><time>2026-05-01T14:47:57.95Z</time></trkpt><trkpt lat="45.341175" lon="7.8731767"><ele>385.33333333333337</ele><time>2026-05-01T14:48:13.95Z</time></trkpt><trkpt lat="45.3411783" lon="7.8730667"><ele>386.5</ele><time>2026-05-01T14:48:15.951Z</time></trkpt><trkpt lat="45.341215" lon="7.872985"><ele>387.6666666666667</ele><time>2026-05-01T14:48:17.951Z</time></trkpt><trkpt lat="45.3412833" lon="7.8728317"><ele>388.8333333333333</ele><time>2026-05-01T14:48:42.95Z</time></trkpt><trkpt lat="45.34121" lon="7.8728833"><ele>390.0</ele><time>2026-05-01T14:48:52.951Z</time></trkpt><trkpt lat="45.3411683" lon="7.8729767"><ele>390.0</ele><time>2026-05-01T14:48:55.95Z</time></trkpt><trkpt lat="45.341155" lon="7.8730683"><ele>390.0</ele><time>2026-05-01T14:48:57.951Z</time></trkpt><trkpt lat="45.3411783" lon="7.8731667"><ele>390.0</ele><time>2026-05-01T14:48:59.95Z</time></trkpt><trkpt lat="45.34124" lon="7.8732133"><ele>390.0</ele><time>2026-05-01T14:49:02.95Z</time></trkpt><trkpt lat="45.3412867" lon="7.87312"><ele>390.0</ele><time>2026-05-01T14:49:05.951Z</time></trkpt><trkpt lat="45.3413317" lon="7.8729867"><ele>390.0</ele><time>2026-05-01T14:49:07.95Z</time></trkpt><trkpt lat="45.3413717" lon="7.8728317"><ele>389.6666666666667</ele><time>2026-05-01T14:49:09.951Z</time></trkpt><trkpt lat="45.34139" lon="7.8727367"><ele>389.33333333333337</ele><time>2026-05-01T14:49:10.951Z</time></trkpt><trkpt lat="45.3414117" lon="7.8726283"><ele>389.0</ele><time>2026-05-01T14:49:11.95Z</time></trkpt><trkpt lat="45.3414367" lon="7.8725233"><ele>388.6666666666667</ele><time>2026-05-01T14:49:12.951Z</time></trkpt><trkpt lat="45.3414683" lon="7.8724083"><ele>388.33333333333337</ele><time>2026-05-01T14:49:13.95Z</time></trkpt><trkpt lat="45.341495" lon="7.8722867"><ele>388.0</ele><time>2026-05-01T14:49:14.95Z</time></trkpt><trkpt lat="45.3415083" lon="7.87216"><ele>388.00000000000006</ele><time>2026-05-01T14:49:15.95Z</time></trkpt><trkpt lat="45.3415117" lon="7.8720267"><ele>388.0</ele><time>2026-05-01T14:49:16.95Z</time></trkpt><trkpt lat="45.3415117" lon="7.871885"><ele>388.0</ele><time>2026-05-01T14:49:17.95Z</time></trkpt><trkpt lat="45.3415067" lon="7.8717633"><ele>388.0</ele><time>2026-05-01T14:49:18.95Z</time></trkpt><trkpt lat="45.3414983" lon="7.8716317"><ele>388.00000000000006</ele><time>2026-05-01T14:49:19.95Z</time></trkpt><trkpt lat="45.3415" lon="7.8715233"><ele>388.0</ele><time>2026-05-01T14:49:20.95Z</time></trkpt><trkpt lat="45.341505" lon="7.8714317"><ele>389.4</ele><time>2026-05-01T14:49:21.951Z</time></trkpt><trkpt lat="45.3415117" lon="7.8712983"><ele>390.79999999999995</ele><time>2026-05-01T14:49:23.95Z</time></trkpt><trkpt lat="45.34152" lon="7.8711733"><ele>392.2</ele><time>2026-05-01T14:49:27.95Z</time></trkpt><trkpt lat="45.34152" lon="7.8710717"><ele>393.6</ele><time>2026-05-01T14:49:29.95Z</time></trkpt><trkpt lat="45.34153" lon="7.8708783"><ele>395.0</ele><time>2026-05-01T14:49:31.95Z</time></trkpt><trkpt lat="45.3415517" lon="7.8707617"><ele>395.8</ele><time>2026-05-01T14:49:32.95Z</time></trkpt><trkpt lat="45.3415683" lon="7.87064"><ele>396.6</ele><time>2026-05-01T14:49:33.95Z</time></trkpt><trkpt lat="45.3415883" lon="7.8705217"><ele>397.4</ele><time>2026-05-01T14:49:34.95Z</time></trkpt><trkpt lat="45.34162" lon="7.8703967"><ele>398.2</ele><time>2026-05-01T14:49:35.95Z</time></trkpt><trkpt lat="45.3416583" lon="7.8702817"><ele>399.0</ele><time>2026-05-01T14:49:36.95Z</time></trkpt><trkpt lat="45.341715" lon="7.870165"><ele>399.2</ele><time>2026-05-01T14:49:37.95Z</time></trkpt><trkpt lat="45.34178" lon="7.8700483"><ele>399.4</ele><time>2026-05-01T14:49:38.951Z</time></trkpt><trkpt lat="45.3418317" lon="7.8699417"><ele>399.6</ele><time>2026-05-01T14:49:39.951Z</time></trkpt><trkpt lat="45.3418833" lon="7.86984"><ele>399.8</ele><time>2026-05-01T14:49:40.95Z</time></trkpt><trkpt lat="45.3419333" lon="7.8697283"><ele>400.0</ele><time>2026-05-01T14:49:41.95Z</time></trkpt><trkpt lat="45.3419933" lon="7.8696167"><ele>400.00000000000006</ele><time>2026-05-01T14:49:42.95Z</time></trkpt><trkpt lat="45.3420467" lon="7.8695233"><ele>400.0</ele><time>2026-05-01T14:49:43.95Z</time></trkpt><trkpt lat="45.3420967" lon="7.869435"><ele>400.0</ele><time>2026-05-01T14:49:44.951Z</time></trkpt><trkpt lat="45.3421267" lon="7.869325"><ele>400.0</ele><time>2026-05-01T14:49:45.95Z</time></trkpt><trkpt lat="45.3421433" lon="7.8692067"><ele>400.00000000000006</ele><time>2026-05-01T14:49:46.95Z</time></trkpt><trkpt lat="45.3421533" lon="7.869085"><ele>400.0</ele><time>2026-05-01T14:49:47.951Z</time></trkpt><trkpt lat="45.3421467" lon="7.86896"><ele>400.4</ele><time>2026-05-01T14:49:48.95Z</time></trkpt><trkpt lat="45.3421533" lon="7.868835"><ele>400.8</ele><time>2026-05-01T14:49:49.95Z</time></trkpt><trkpt lat="45.3421767" lon="7.8687117"><ele>401.20000000000005</ele><time>2026-05-01T14:49:50.95Z</time></trkpt><trkpt lat="45.3422267" lon="7.8686067"><ele>401.6</ele><time>2026-05-01T14:49:51.95Z</time></trkpt><trkpt lat="45.3422917" lon="7.8684967"><ele>402.0</ele><time>2026-05-01T14:49:52.95Z</time></trkpt><trkpt lat="45.3423433" lon="7.868395"><ele>402.0</ele><time>2026-05-01T14:49:53.95Z</time></trkpt><trkpt lat="45.3423917" lon="7.8683"><ele>402.0</ele><time>2026-05-01T14:49:54.95Z</time></trkpt><trkpt lat="45.3424317" lon="7.8682017"><ele>402.0</ele><time>2026-05-01T14:49:55.95Z</time></trkpt><trkpt lat="45.3424767" lon="7.868105"><ele>402.0</ele><time>2026-05-01T14:49:56.95Z</time></trkpt><trkpt lat="45.3425117" lon="7.8680167"><ele>402.0</ele><time>2026-05-01T14:49:57.951Z</time></trkpt><trkpt lat="45.3425433" lon="7.867925"><ele>402.0</ele><time>2026-05-01T14:49:58.951Z</time></trkpt><trkpt lat="45.3425867" lon="7.8678117"><ele>402.0</ele><time>2026-05-01T14:49:59.95Z</time></trkpt><trkpt lat="45.3426283" lon="7.8676983"><ele>402.0</ele><time>2026-05-01T14:50:00.95Z</time></trkpt><trkpt lat="45.3426733" lon="7.8675883"><ele>402.0</ele><time>2026-05-01T14:50:01.95Z</time></trkpt><trkpt lat="45.3427217" lon="7.86748"><ele>402.0</ele><time>2026-05-01T14:50:02.951Z</time></trkpt><trkpt lat="45.3427533" lon="7.8673967"><ele>402.0</ele><time>2026-05-01T14:50:03.95Z</time></trkpt><trkpt lat="45.3428183" lon="7.867235"><ele>401.6666666666667</ele><time>2026-05-01T14:50:05.95Z</time></trkpt><trkpt lat="45.3428467" lon="7.8671283"><ele>401.33333333333337</ele><time>2026-05-01T14:50:06.95Z</time></trkpt><trkpt lat="45.34287" lon="7.86701"><ele>401.0</ele><time>2026-05-01T14:50:07.95Z</time></trkpt><trkpt lat="45.3428933" lon="7.866885"><ele>400.6666666666667</ele><time>2026-05-01T14:50:08.95Z</time></trkpt><trkpt lat="45.34291" lon="7.8667533"><ele>400.33333333333337</ele><time>2026-05-01T14:50:09.95Z</time></trkpt><trkpt lat="45.3429217" lon="7.8666233"><ele>400.0</ele><time>2026-05-01T14:50:10.95Z</time></trkpt><trkpt lat="45.342925" lon="7.8665033"><ele>399.00000000000006</ele><time>2026-05-01T14:50:11.95Z</time></trkpt><trkpt lat="45.3429217" lon="7.8663883"><ele>398.0</ele><time>2026-05-01T14:50:12.95Z</time></trkpt><trkpt lat="45.342935" lon="7.866265"><ele>397.0</ele><time>2026-05-01T14:50:13.95Z</time></trkpt><trkpt lat="45.3429583" lon="7.8661567"><ele>396.0</ele><time>2026-05-01T14:50:14.951Z</time></trkpt><trkpt lat="45.3429883" lon="7.86607"><ele>395.00000000000006</ele><time>2026-05-01T14:50:15.95Z</time></trkpt><trkpt lat="45.3430467" lon="7.8659283"><ele>394.0</ele><time>2026-05-01T14:50:17.95Z</time></trkpt><trkpt lat="45.34309" lon="7.8658483"><ele>393.33333333333337</ele><time>2026-05-01T14:50:19.95Z</time></trkpt><trkpt lat="45.34315" lon="7.865795"><ele>392.6666666666667</ele><time>2026-05-01T14:50:21.951Z</time></trkpt><trkpt lat="45.3432167" lon="7.8657417"><ele>392.0</ele><time>2026-05-01T14:50:23.95Z</time></trkpt><trkpt lat="45.34326" lon="7.865675"><ele>391.33333333333337</ele><time>2026-05-01T14:50:25.95Z</time></trkpt><trkpt lat="45.3433167" lon="7.8655567"><ele>390.6666666666667</ele><time>2026-05-01T14:50:27.951Z</time></trkpt><trkpt lat="45.343365" lon="7.865425"><ele>390.0</ele><time>2026-05-01T14:50:29.95Z</time></trkpt><trkpt lat="45.3433983" lon="7.86529"><ele>390.0</ele><time>2026-05-01T14:50:31.95Z</time></trkpt><trkpt lat="45.3434083" lon="7.8651533"><ele>390.0</ele><time>2026-05-01T14:50:33.951Z</time></trkpt><trkpt lat="45.3434167" lon="7.8649983"><ele>390.0</ele><time>2026-05-01T14:50:35.951Z</time></trkpt><trkpt lat="45.3434233" lon="7.8649"><ele>390.0</ele><time>2026-05-01T14:50:36.951Z</time></trkpt><trkpt lat="45.343425" lon="7.8647967"><ele>390.0</ele><time>2026-05-01T14:50:37.95Z</time></trkpt><trkpt lat="45.34343" lon="7.8646983"><ele>390.0</ele><time>2026-05-01T14:50:38.951Z</time></trkpt><trkpt lat="45.3434317" lon="7.8645933"><ele>389.85714285714283</ele><time>2026-05-01T14:50:39.95Z</time></trkpt><trkpt lat="45.3434333" lon="7.8644867"><ele>389.71428571428567</ele><time>2026-05-01T14:50:40.95Z</time></trkpt><trkpt lat="45.343435" lon="7.8643917"><ele>389.57142857142856</ele><time>2026-05-01T14:50:41.95Z</time></trkpt><trkpt lat="45.3434267" lon="7.8643"><ele>389.42857142857144</ele><time>2026-05-01T14:50:42.95Z</time></trkpt><trkpt lat="45.3434117" lon="7.8642"><ele>389.2857142857143</ele><time>2026-05-01T14:50:43.95Z</time></trkpt><trkpt lat="45.3434" lon="7.8640967"><ele>389.14285714285717</ele><time>2026-05-01T14:50:44.95Z</time></trkpt><trkpt lat="45.3433883" lon="7.8640033"><ele>389.0</ele><time>2026-05-01T14:50:45.951Z</time></trkpt><trkpt lat="45.3433883" lon="7.8639"><ele>388.75</ele><time>2026-05-01T14:50:46.95Z</time></trkpt><trkpt lat="45.3433983" lon="7.8637233"><ele>388.5</ele><time>2026-05-01T14:50:48.951Z</time></trkpt><trkpt lat="45.3434133" lon="7.863565"><ele>388.25</ele><time>2026-05-01T14:50:50.95Z</time></trkpt><trkpt lat="45.3434283" lon="7.8634183"><ele>388.0</ele><time>2026-05-01T14:50:52.95Z</time></trkpt><trkpt lat="45.3434367" lon="7.8632417"><ele>388.2</ele><time>2026-05-01T14:50:54.951Z</time></trkpt><trkpt lat="45.3434733" lon="7.863065"><ele>388.4</ele><time>2026-05-01T14:50:56.95Z</time></trkpt><trkpt lat="45.3434967" lon="7.862975"><ele>388.59999999999997</ele><time>2026-05-01T14:50:57.95Z</time></trkpt><trkpt lat="45.3435067" lon="7.862885"><ele>388.79999999999995</ele><time>2026-05-01T14:50:58.95Z</time></trkpt><trkpt lat="45.3435117" lon="7.8627317"><ele>389.0</ele><time>2026-05-01T14:51:00.952Z</time></trkpt><trkpt lat="45.3435267" lon="7.86257"><ele>389.0</ele><time>2026-05-01T14:51:02.952Z</time></trkpt><trkpt lat="45.343545" lon="7.862445"><ele>389.0</ele><time>2026-05-01T14:51:04.952Z</time></trkpt><trkpt lat="45.3436017" lon="7.8622283"><ele>389.0</ele><time>2026-05-01T14:53:02.951Z</time></trkpt><trkpt lat="45.3436433" lon="7.8621567"><ele>389.0</ele><time>2026-05-01T14:53:04.951Z</time></trkpt><trkpt lat="45.3437" lon="7.8620767"><ele>389.0</ele><time>2026-05-01T14:53:06.952Z</time></trkpt><trkpt lat="45.343765" lon="7.8619767"><ele>389.0</ele><time>2026-05-01T14:53:09.951Z</time></trkpt><trkpt lat="45.3437783" lon="7.86187"><ele>389.0</ele><time>2026-05-01T14:53:11.951Z</time></trkpt><trkpt lat="45.34379" lon="7.8617683"><ele>389.0</ele><time>2026-05-01T14:53:13.951Z</time></trkpt><trkpt lat="45.3438483" lon="7.8616417"><ele>389.0</ele><time>2026-05-01T14:53:15.951Z</time></trkpt><trkpt lat="45.3439167" lon="7.86149"><ele>389.0</ele><time>2026-05-01T14:53:17.951Z</time></trkpt><trkpt lat="45.3439483" lon="7.86133"><ele>387.4</ele><time>2026-05-01T14:53:19.951Z</time></trkpt><trkpt lat="45.3439783" lon="7.8612217"><ele>385.79999999999995</ele><time>2026-05-01T14:53:21.951Z</time></trkpt><trkpt lat="45.3440317" lon="7.861115"><ele>384.20000000000005</ele><time>2026-05-01T14:53:23.952Z</time></trkpt><trkpt lat="45.34406" lon="7.8610017"><ele>382.6</ele><time>2026-05-01T14:53:25.951Z</time></trkpt><trkpt lat="45.3440883" lon="7.8608667"><ele>381.0</ele><time>2026-05-01T14:53:27.951Z</time></trkpt><trkpt lat="45.3441367" lon="7.860745"><ele>381.0</ele><time>2026-05-01T14:53:29.952Z</time></trkpt><trkpt lat="45.3441683" lon="7.8605967"><ele>381.0</ele><time>2026-05-01T14:53:31.951Z</time></trkpt><trkpt lat="45.344195" lon="7.86043"><ele>381.0</ele><time>2026-05-01T14:53:33.951Z</time></trkpt><trkpt lat="45.3442133" lon="7.8603417"><ele>381.0</ele><time>2026-05-01T14:53:34.951Z</time></trkpt><trkpt lat="45.34425" lon="7.860205"><ele>381.0</ele><time>2026-05-01T14:53:36.951Z</time></trkpt><trkpt lat="45.3442717" lon="7.8600883"><ele>381.0</ele><time>2026-05-01T14:53:38.952Z</time></trkpt><trkpt lat="45.3442767" lon="7.8599867"><ele>381.0</ele><time>2026-05-01T14:53:40.951Z</time></trkpt><trkpt lat="45.344245" lon="7.8599"><ele>381.0</ele><time>2026-05-01T14:53:42.952Z</time></trkpt><trkpt lat="45.3442067" lon="7.8598133"><ele>381.0</ele><time>2026-05-01T14:53:44.951Z</time></trkpt><trkpt lat="45.3441883" lon="7.8597"><ele>381.0</ele><time>2026-05-01T14:53:46.951Z</time></trkpt><trkpt lat="45.3441817" lon="7.859575"><ele>381.0</ele><time>2026-05-01T14:53:48.951Z</time></trkpt><trkpt lat="45.344175" lon="7.8594717"><ele>381.0</ele><time>2026-05-01T14:53:50.952Z</time></trkpt><trkpt lat="45.3441983" lon="7.8593833"><ele>381.0</ele><time>2026-05-01T14:53:52.951Z</time></trkpt><trkpt lat="45.34426" lon="7.859285"><ele>381.0</ele><time>2026-05-01T14:53:54.951Z</time></trkpt><trkpt lat="45.3443367" lon="7.85917"><ele>381.0</ele><time>2026-05-01T14:53:56.951Z</time></trkpt><trkpt lat="45.344415" lon="7.85906"><ele>381.0</ele><time>2026-05-01T14:53:58.952Z</time></trkpt><trkpt lat="45.3444817" lon="7.8590217"><ele>381.0</ele><time>2026-05-01T14:54:02.951Z</time></trkpt><trkpt lat="45.3445583" lon="7.8589883"><ele>381.0</ele><time>2026-05-01T14:54:27.951Z</time></trkpt><trkpt lat="45.344535" lon="7.859105"><ele>381.0</ele><time>2026-05-01T14:54:32.951Z</time></trkpt><trkpt lat="45.3445067" lon="7.8591933"><ele>381.0</ele><time>2026-05-01T14:54:34.951Z</time></trkpt><trkpt lat="45.3444983" lon="7.8593433"><ele>381.0</ele><time>2026-05-01T14:54:36.951Z</time></trkpt><trkpt lat="45.3444883" lon="7.8594983"><ele>381.0</ele><time>2026-05-01T14:54:38.951Z</time></trkpt><trkpt lat="45.3445167" lon="7.8595817"><ele>381.0</ele><time>2026-05-01T14:54:39.951Z</time></trkpt><trkpt lat="45.34458" lon="7.85972"><ele>381.0</ele><time>2026-05-01T14:54:41.951Z</time></trkpt><trkpt lat="45.34466" lon="7.8598017"><ele>381.0</ele><time>2026-05-01T14:54:43.952Z</time></trkpt><trkpt lat="45.34472" lon="7.85989"><ele>381.0</ele><time>2026-05-01T14:54:45.951Z</time></trkpt><trkpt lat="45.344735" lon="7.86004"><ele>381.0</ele><time>2026-05-01T14:54:47.952Z</time></trkpt><trkpt lat="45.3447367" lon="7.860145"><ele>380.1666666666667</ele><time>2026-05-01T14:54:48.951Z</time></trkpt><trkpt lat="45.34474" lon="7.8602433"><ele>379.3333333333333</ele><time>2026-05-01T14:54:49.952Z</time></trkpt><trkpt lat="45.3447783" lon="7.8603367"><ele>378.5</ele><time>2026-05-01T14:54:51.951Z</time></trkpt><trkpt lat="45.3448367" lon="7.8602917"><ele>377.66666666666663</ele><time>2026-05-01T14:54:53.952Z</time></trkpt><trkpt lat="45.3449" lon="7.86014"><ele>376.8333333333333</ele><time>2026-05-01T14:54:55.951Z</time></trkpt><trkpt lat="45.3449383" lon="7.8600583"><ele>376.0</ele><time>2026-05-01T14:54:56.952Z</time></trkpt><trkpt lat="45.34497" lon="7.8599767"><ele>376.0</ele><time>2026-05-01T14:54:57.952Z</time></trkpt><trkpt lat="45.3450033" lon="7.8598983"><ele>376.0</ele><time>2026-05-01T14:54:58.951Z</time></trkpt><trkpt lat="45.3450333" lon="7.8598183"><ele>376.0</ele><time>2026-05-01T14:54:59.951Z</time></trkpt><trkpt lat="45.3450783" lon="7.859675"><ele>376.0</ele><time>2026-05-01T14:55:01.951Z</time></trkpt><trkpt lat="45.3451283" lon="7.859575"><ele>376.0</ele><time>2026-05-01T14:55:03.952Z</time></trkpt><trkpt lat="45.3451883" lon="7.8594917"><ele>376.0</ele><time>2026-05-01T14:55:05.951Z</time></trkpt><trkpt lat="45.3452183" lon="7.8594033"><ele>375.66666666666663</ele><time>2026-05-01T14:55:07.951Z</time></trkpt><trkpt lat="45.3452833" lon="7.859265"><ele>375.3333333333333</ele><time>2026-05-01T14:55:09.952Z</time></trkpt><trkpt lat="45.3453217" lon="7.8591933"><ele>375.0</ele><time>2026-05-01T14:55:10.951Z</time></trkpt><trkpt lat="45.3453683" lon="7.8591133"><ele>374.6666666666667</ele><time>2026-05-01T14:55:11.951Z</time></trkpt><trkpt lat="45.345435" lon="7.8589767"><ele>374.33333333333337</ele><time>2026-05-01T14:55:13.951Z</time></trkpt><trkpt lat="45.345445" lon="7.8588783"><ele>374.0</ele><time>2026-05-01T14:55:15.952Z</time></trkpt><trkpt lat="45.3453433" lon="7.85884"><ele>374.0</ele><time>2026-05-01T14:55:18.952Z</time></trkpt><trkpt lat="45.3453667" lon="7.8587217"><ele>374.0</ele><time>2026-05-01T14:55:24.951Z</time></trkpt><trkpt lat="45.3454283" lon="7.8586717"><ele>374.0</ele><time>2026-05-01T14:55:26.952Z</time></trkpt><trkpt lat="45.3454917" lon="7.8585883"><ele>374.0</ele><time>2026-05-01T14:55:29.951Z</time></trkpt><trkpt lat="45.3454217" lon="7.8585133"><ele>374.0</ele><time>2026-05-01T14:55:38.951Z</time></trkpt><trkpt lat="45.345355" lon="7.8585017"><ele>374.0</ele><time>2026-05-01T14:55:39.951Z</time></trkpt><trkpt lat="45.3452783" lon="7.858495"><ele>374.0</ele><time>2026-05-01T14:55:40.951Z</time></trkpt><trkpt lat="45.3452" lon="7.8584867"><ele>374.0</ele><time>2026-05-01T14:55:41.951Z</time></trkpt><trkpt lat="45.345125" lon="7.8584783"><ele>374.0</ele><time>2026-05-01T14:55:42.951Z</time></trkpt><trkpt lat="45.3450617" lon="7.858475"><ele>374.0</ele><time>2026-05-01T14:55:43.951Z</time></trkpt><trkpt lat="45.3449583" lon="7.8584667"><ele>374.0</ele><time>2026-05-01T14:55:45.951Z</time></trkpt><trkpt lat="45.3448783" lon="7.85844"><ele>374.0</ele><time>2026-05-01T14:55:47.951Z</time></trkpt><trkpt lat="45.3449467" lon="7.8583783"><ele>373.85714285714283</ele><time>2026-05-01T14:55:54.951Z</time></trkpt><trkpt lat="45.3450133" lon="7.858395"><ele>373.7142857142857</ele><time>2026-05-01T14:55:56.952Z</time></trkpt><trkpt lat="45.34508" lon="7.8583917"><ele>373.57142857142856</ele><time>2026-05-01T14:55:58.951Z</time></trkpt><trkpt lat="45.3451467" lon="7.8583267"><ele>373.42857142857144</ele><time>2026-05-01T14:56:00.952Z</time></trkpt><trkpt lat="45.3451783" lon="7.8582417"><ele>373.28571428571433</ele><time>2026-05-01T14:56:02.951Z</time></trkpt><trkpt lat="45.345155" lon="7.8581167"><ele>373.14285714285717</ele><time>2026-05-01T14:56:05.952Z</time></trkpt><trkpt lat="45.345135" lon="7.8580133"><ele>373.0</ele><time>2026-05-01T14:56:08.951Z</time></trkpt><trkpt lat="45.3451217" lon="7.8579217"><ele>373.0</ele><time>2026-05-01T14:56:10.952Z</time></trkpt><trkpt lat="45.3450983" lon="7.8578083"><ele>373.0</ele><time>2026-05-01T14:56:12.951Z</time></trkpt><trkpt lat="45.3450967" lon="7.857715"><ele>373.0</ele><time>2026-05-01T14:56:14.952Z</time></trkpt><trkpt lat="45.345075" lon="7.8576183"><ele>373.0</ele><time>2026-05-01T14:56:17.951Z</time></trkpt><trkpt lat="45.3450583" lon="7.8575167"><ele>373.0</ele><time>2026-05-01T14:56:19.951Z</time></trkpt><trkpt lat="45.34502" lon="7.857405"><ele>373.0</ele><time>2026-05-01T14:56:21.951Z</time></trkpt><trkpt lat="45.344985" lon="7.85729"><ele>374.4</ele><time>2026-05-01T14:56:23.951Z</time></trkpt><trkpt lat="45.344955" lon="7.8571983"><ele>375.79999999999995</ele><time>2026-05-01T14:56:25.952Z</time></trkpt><trkpt lat="45.3449483" lon="7.8570483"><ele>377.2</ele><time>2026-05-01T14:56:44.951Z</time></trkpt><trkpt lat="45.3449483" lon="7.8569183"><ele>378.6</ele><time>2026-05-01T14:56:46.951Z</time></trkpt><trkpt lat="45.344945" lon="7.85679"><ele>380.0</ele><time>2026-05-01T14:56:48.951Z</time></trkpt><trkpt lat="45.344955" lon="7.8566517"><ele>380.0</ele><time>2026-05-01T14:56:50.951Z</time></trkpt><trkpt lat="45.344965" lon="7.8564967"><ele>380.0</ele><time>2026-05-01T14:56:52.951Z</time></trkpt><trkpt lat="45.3449767" lon="7.85635"><ele>380.0</ele><time>2026-05-01T14:56:54.951Z</time></trkpt><trkpt lat="45.3450133" lon="7.8562583"><ele>380.0</ele><time>2026-05-01T14:56:56.952Z</time></trkpt><trkpt lat="45.3450767" lon="7.856175"><ele>380.0</ele><time>2026-05-01T14:56:58.952Z</time></trkpt><trkpt lat="45.3451433" lon="7.8560883"><ele>380.0</ele><time>2026-05-01T14:57:00.951Z</time></trkpt><trkpt lat="45.3451783" lon="7.8559833"><ele>380.0</ele><time>2026-05-01T14:57:02.952Z</time></trkpt><trkpt lat="45.3452483" lon="7.8558883"><ele>380.0</ele><time>2026-05-01T14:57:05.951Z</time></trkpt><trkpt lat="45.3453233" lon="7.8557783"><ele>380.0</ele><time>2026-05-01T14:57:07.952Z</time></trkpt><trkpt lat="45.3453733" lon="7.8557033"><ele>380.0</ele><time>2026-05-01T14:57:09.952Z</time></trkpt><trkpt lat="45.34542" lon="7.8556067"><ele>380.0</ele><time>2026-05-01T14:57:11.952Z</time></trkpt><trkpt lat="45.34543" lon="7.8554783"><ele>379.4</ele><time>2026-05-01T14:57:13.951Z</time></trkpt><trkpt lat="45.34543" lon="7.8553517"><ele>378.8</ele><time>2026-05-01T14:57:15.951Z</time></trkpt><trkpt lat="45.34544" lon="7.855235"><ele>378.20000000000005</ele><time>2026-05-01T14:57:17.951Z</time></trkpt><trkpt lat="45.345465" lon="7.8550917"><ele>377.6</ele><time>2026-05-01T14:57:19.952Z</time></trkpt><trkpt lat="45.3455083" lon="7.8549767"><ele>377.0</ele><time>2026-05-01T14:57:21.951Z</time></trkpt><trkpt lat="45.345545" lon="7.854825"><ele>378.8</ele><time>2026-05-01T14:57:23.952Z</time></trkpt><trkpt lat="45.3455767" lon="7.8546883"><ele>380.6</ele><time>2026-05-01T14:57:25.951Z</time></trkpt><trkpt lat="45.3456067" lon="7.8545483"><ele>382.40000000000003</ele><time>2026-05-01T14:57:27.952Z</time></trkpt><trkpt lat="45.3456217" lon="7.85445"><ele>384.20000000000005</ele><time>2026-05-01T14:57:29.951Z</time></trkpt><trkpt lat="45.3456517" lon="7.8543383"><ele>386.0</ele><time>2026-05-01T14:57:31.951Z</time></trkpt><trkpt lat="45.3457033" lon="7.8542"><ele>386.8</ele><time>2026-05-01T14:57:33.951Z</time></trkpt><trkpt lat="45.3457317" lon="7.8541167"><ele>387.6</ele><time>2026-05-01T14:57:34.951Z</time></trkpt><trkpt lat="45.3457733" lon="7.8539533"><ele>388.4</ele><time>2026-05-01T14:57:36.951Z</time></trkpt><trkpt lat="45.3458117" lon="7.8537833"><ele>389.2</ele><time>2026-05-01T14:57:38.952Z</time></trkpt><trkpt lat="45.3458667" lon="7.8536283"><ele>390.0</ele><time>2026-05-01T14:57:40.951Z</time></trkpt><trkpt lat="45.3459283" lon="7.8534833"><ele>389.4</ele><time>2026-05-01T14:57:42.951Z</time></trkpt><trkpt lat="45.3459617" lon="7.8534067"><ele>388.8</ele><time>2026-05-01T14:57:43.952Z</time></trkpt><trkpt lat="45.3460317" lon="7.8532533"><ele>388.20000000000005</ele><time>2026-05-01T14:57:45.951Z</time></trkpt><trkpt lat="45.3461367" lon="7.853155"><ele>387.6</ele><time>2026-05-01T14:57:47.951Z</time></trkpt><trkpt lat="45.3462033" lon="7.8531267"><ele>387.0</ele><time>2026-05-01T14:57:48.951Z</time></trkpt><trkpt lat="45.3462683" lon="7.853105"><ele>387.0</ele><time>2026-05-01T14:57:49.952Z</time></trkpt><trkpt lat="45.34633" lon="7.8530833"><ele>387.0</ele><time>2026-05-01T14:57:50.952Z</time></trkpt><trkpt lat="45.3464017" lon="7.853"><ele>387.0</ele><time>2026-05-01T14:57:52.952Z</time></trkpt><trkpt lat="45.34642" lon="7.8529017"><ele>387.0</ele><time>2026-05-01T14:57:54.951Z</time></trkpt><trkpt lat="45.3464283" lon="7.8527617"><ele>387.0</ele><time>2026-05-01T14:57:56.951Z</time></trkpt><trkpt lat="45.3464317" lon="7.852595"><ele>387.0</ele><time>2026-05-01T14:57:58.951Z</time></trkpt><trkpt lat="45.3464367" lon="7.8524967"><ele>386.6666666666667</ele><time>2026-05-01T14:57:59.951Z</time></trkpt><trkpt lat="45.3464367" lon="7.852395"><ele>386.33333333333337</ele><time>2026-05-01T14:58:00.951Z</time></trkpt><trkpt lat="45.3464317" lon="7.8522867"><ele>386.0</ele><time>2026-05-01T14:58:01.952Z</time></trkpt><trkpt lat="45.346425" lon="7.8521933"><ele>385.6666666666667</ele><time>2026-05-01T14:58:02.951Z</time></trkpt><trkpt lat="45.3464267" lon="7.8520117"><ele>385.33333333333337</ele><time>2026-05-01T14:58:04.952Z</time></trkpt><trkpt lat="45.3464267" lon="7.8519217"><ele>385.0</ele><time>2026-05-01T14:58:05.952Z</time></trkpt><trkpt lat="45.3464483" lon="7.851825"><ele>385.1666666666667</ele><time>2026-05-01T14:58:06.951Z</time></trkpt><trkpt lat="45.346475" lon="7.8517433"><ele>385.33333333333337</ele><time>2026-05-01T14:58:07.951Z</time></trkpt><trkpt lat="45.346495" lon="7.851655"><ele>385.5</ele><time>2026-05-01T14:58:08.952Z</time></trkpt><trkpt lat="45.3465117" lon="7.85156"><ele>385.66666666666663</ele><time>2026-05-01T14:58:09.952Z</time></trkpt><trkpt lat="45.3465267" lon="7.8514667"><ele>385.8333333333333</ele><time>2026-05-01T14:58:10.951Z</time></trkpt><trkpt lat="45.3465583" lon="7.8513067"><ele>386.0</ele><time>2026-05-01T14:58:12.951Z</time></trkpt><trkpt lat="45.3465883" lon="7.8511717"><ele>385.99999999999994</ele><time>2026-05-01T14:58:14.951Z</time></trkpt><trkpt lat="45.346605" lon="7.8510667"><ele>386.0</ele><time>2026-05-01T14:58:15.952Z</time></trkpt><trkpt lat="45.3466183" lon="7.85095"><ele>386.0</ele><time>2026-05-01T14:58:16.951Z</time></trkpt><trkpt lat="45.346625" lon="7.85085"><ele>386.0</ele><time>2026-05-01T14:58:17.951Z</time></trkpt><trkpt lat="45.3466317" lon="7.8507567"><ele>385.99999999999994</ele><time>2026-05-01T14:58:18.951Z</time></trkpt><trkpt lat="45.34663" lon="7.85061"><ele>386.0</ele><time>2026-05-01T14:58:20.952Z</time></trkpt><trkpt lat="45.346655" lon="7.8504367"><ele>386.0</ele><time>2026-05-01T14:58:22.951Z</time></trkpt><trkpt lat="45.3466683" lon="7.8503433"><ele>386.0</ele><time>2026-05-01T14:58:23.952Z</time></trkpt><trkpt lat="45.3467" lon="7.850165"><ele>386.0</ele><time>2026-05-01T14:58:25.951Z</time></trkpt><trkpt lat="45.34675" lon="7.8500283"><ele>386.0</ele><time>2026-05-01T14:58:27.952Z</time></trkpt><trkpt lat="45.3467833" lon="7.84992"><ele>386.0</ele><time>2026-05-01T14:58:29.951Z</time></trkpt><trkpt lat="45.347605" lon="7.84366"><ele>385.99999999999994</ele><time>2026-05-01T15:10:50.952Z</time></trkpt><trkpt lat="45.3475967" lon="7.8435617"><ele>386.0</ele><time>2026-05-01T15:10:51.952Z</time></trkpt><trkpt lat="45.3475883" lon="7.8434633"><ele>386.0</ele><time>2026-05-01T15:10:52.952Z</time></trkpt><trkpt lat="45.3475733" lon="7.843375"><ele>386.0</ele><time>2026-05-01T15:10:53.953Z</time></trkpt><trkpt lat="45.3475567" lon="7.843285"><ele>385.99999999999994</ele><time>2026-05-01T15:10:54.953Z</time></trkpt><trkpt lat="45.3475083" lon="7.843125"><ele>386.0</ele><time>2026-05-01T15:10:56.953Z</time></trkpt><trkpt lat="45.3474883" lon="7.84304"><ele>385.20000000000005</ele><time>2026-05-01T15:10:57.952Z</time></trkpt><trkpt lat="45.3474767" lon="7.8428883"><ele>384.40000000000003</ele><time>2026-05-01T15:10:59.953Z</time></trkpt><trkpt lat="45.34748" lon="7.8427283"><ele>383.6</ele><time>2026-05-01T15:11:01.952Z</time></trkpt><trkpt lat="45.3474733" lon="7.8426383"><ele>382.8</ele><time>2026-05-01T15:11:02.953Z</time></trkpt><trkpt lat="45.34746" lon="7.8424967"><ele>382.0</ele><time>2026-05-01T15:11:04.953Z</time></trkpt><trkpt lat="45.3474683" lon="7.8422533"><ele>381.40000000000003</ele><time>2026-05-01T15:11:08.953Z</time></trkpt><trkpt lat="45.347485" lon="7.8421367"><ele>380.8</ele><time>2026-05-01T15:11:10.952Z</time></trkpt><trkpt lat="45.3475133" lon="7.8420383"><ele>380.2</ele><time>2026-05-01T15:11:12.952Z</time></trkpt><trkpt lat="45.3475433" lon="7.8419467"><ele>379.6</ele><time>2026-05-01T15:11:14.952Z</time></trkpt><trkpt lat="45.3475983" lon="7.8418183"><ele>379.0</ele><time>2026-05-01T15:11:16.952Z</time></trkpt><trkpt lat="45.3476667" lon="7.841685"><ele>378.4</ele><time>2026-05-01T15:11:18.952Z</time></trkpt><trkpt lat="45.34774" lon="7.8415583"><ele>377.79999999999995</ele><time>2026-05-01T15:11:20.952Z</time></trkpt><trkpt lat="45.3478367" lon="7.8414267"><ele>377.20000000000005</ele><time>2026-05-01T15:11:22.952Z</time></trkpt><trkpt lat="45.3479067" lon="7.8413467"><ele>376.6</ele><time>2026-05-01T15:11:23.953Z</time></trkpt><trkpt lat="45.3479767" lon="7.8412683"><ele>376.0</ele><time>2026-05-01T15:11:24.952Z</time></trkpt><trkpt lat="45.3480417" lon="7.8412"><ele>374.0</ele><time>2026-05-01T15:11:25.952Z</time></trkpt><trkpt lat="45.3482" lon="7.840965"><ele>372.0</ele><time>2026-05-01T15:11:27.952Z</time></trkpt><trkpt lat="45.348245" lon="7.8408783"><ele>370.0</ele><time>2026-05-01T15:11:28.952Z</time></trkpt><trkpt lat="45.3482833" lon="7.8407767"><ele>368.0</ele><time>2026-05-01T15:11:29.953Z</time></trkpt><trkpt lat="45.3483217" lon="7.84068"><ele>368.0</ele><time>2026-05-01T15:11:30.952Z</time></trkpt><trkpt lat="45.3483567" lon="7.8406017"><ele>368.0</ele><time>2026-05-01T15:11:31.952Z</time></trkpt><trkpt lat="45.3484217" lon="7.8404733"><ele>368.0</ele><time>2026-05-01T15:11:33.952Z</time></trkpt><trkpt lat="45.34848" lon="7.8403667"><ele>368.0</ele><time>2026-05-01T15:11:35.952Z</time></trkpt><trkpt lat="45.34853" lon="7.8402867"><ele>368.0</ele><time>2026-05-01T15:11:38.952Z</time></trkpt><trkpt lat="45.3486167" lon="7.8402767"><ele>368.0</ele><time>2026-05-01T15:11:43.953Z</time></trkpt><trkpt lat="45.348725" lon="7.8404"><ele>368.0</ele><time>2026-05-01T15:11:45.952Z</time></trkpt><trkpt lat="45.348805" lon="7.8405083"><ele>368.0</ele><time>2026-05-01T15:11:46.953Z</time></trkpt><trkpt lat="45.3489867" lon="7.840775"><ele>368.0</ele><time>2026-05-01T15:11:48.952Z</time></trkpt><trkpt lat="45.34907" lon="7.840895"><ele>367.0</ele><time>2026-05-01T15:11:49.952Z</time></trkpt><trkpt lat="45.349165" lon="7.840965"><ele>366.0</ele><time>2026-05-01T15:11:50.952Z</time></trkpt><trkpt lat="45.3492783" lon="7.8409967"><ele>365.0</ele><time>2026-05-01T15:11:51.953Z</time></trkpt><trkpt lat="45.3494067" lon="7.840985"><ele>364.0</ele><time>2026-05-01T15:11:52.952Z</time></trkpt><trkpt lat="45.349545" lon="7.840945"><ele>364.0</ele><time>2026-05-01T15:11:53.952Z</time></trkpt><trkpt lat="45.3496867" lon="7.8408817"><ele>364.0</ele><time>2026-05-01T15:11:54.953Z</time></trkpt><trkpt lat="45.3498283" lon="7.8408217"><ele>364.0</ele><time>2026-05-01T15:11:55.952Z</time></trkpt><trkpt lat="45.3499617" lon="7.840765"><ele>364.0</ele><time>2026-05-01T15:11:56.953Z</time></trkpt><trkpt lat="45.350095" lon="7.840715"><ele>363.0</ele><time>2026-05-01T15:11:57.952Z</time></trkpt><trkpt lat="45.35023" lon="7.8406833"><ele>362.0</ele><time>2026-05-01T15:11:58.953Z</time></trkpt><trkpt lat="45.35037" lon="7.8406767"><ele>361.0</ele><time>2026-05-01T15:11:59.953Z</time></trkpt><trkpt lat="45.3505017" lon="7.8406833"><ele>360.0</ele><time>2026-05-01T15:12:00.952Z</time></trkpt><trkpt lat="45.350625" lon="7.840705"><ele>357.25</ele><time>2026-05-01T15:12:01.952Z</time></trkpt><trkpt lat="45.3507467" lon="7.8407383"><ele>354.5</ele><time>2026-05-01T15:12:02.952Z</time></trkpt><trkpt lat="45.350855" lon="7.8407717"><ele>351.75</ele><time>2026-05-01T15:12:03.953Z</time></trkpt><trkpt lat="45.35096" lon="7.8408033"><ele>349.0</ele><time>2026-05-01T15:12:04.952Z</time></trkpt><trkpt lat="45.3510717" lon="7.84083"><ele>349.0</ele><time>2026-05-01T15:12:05.952Z</time></trkpt><trkpt lat="45.3511867" lon="7.8408467"><ele>349.0</ele><time>2026-05-01T15:12:06.953Z</time></trkpt><trkpt lat="45.3513033" lon="7.840845"><ele>349.0</ele><time>2026-05-01T15:12:07.953Z</time></trkpt><trkpt lat="45.351535" lon="7.84076"><ele>347.79999999999995</ele><time>2026-05-01T15:12:09.953Z</time></trkpt><trkpt lat="45.3516367" lon="7.8407017"><ele>346.59999999999997</ele><time>2026-05-01T15:12:10.953Z</time></trkpt><trkpt lat="45.35173" lon="7.8406267"><ele>345.4</ele><time>2026-05-01T15:12:11.952Z</time></trkpt><trkpt lat="45.3518333" lon="7.8405617"><ele>344.2</ele><time>2026-05-01T15:12:12.952Z</time></trkpt><trkpt lat="45.3519383" lon="7.8404983"><ele>343.0</ele><time>2026-05-01T15:12:13.953Z</time></trkpt><trkpt lat="45.3520483" lon="7.8404283"><ele>343.0</ele><time>2026-05-01T15:12:14.953Z</time></trkpt><trkpt lat="45.35216" lon="7.8403633"><ele>343.0</ele><time>2026-05-01T15:12:15.952Z</time></trkpt><trkpt lat="45.3522733" lon="7.8402967"><ele>343.0</ele><time>2026-05-01T15:12:16.952Z</time></trkpt><trkpt lat="45.3523767" lon="7.8402333"><ele>343.0</ele><time>2026-05-01T15:12:17.952Z</time></trkpt><trkpt lat="45.3524783" lon="7.8401667"><ele>342.59999999999997</ele><time>2026-05-01T15:12:18.952Z</time></trkpt><trkpt lat="45.3525767" lon="7.8401217"><ele>342.2</ele><time>2026-05-01T15:12:19.952Z</time></trkpt><trkpt lat="45.352675" lon="7.84008"><ele>341.8</ele><time>2026-05-01T15:12:20.952Z</time></trkpt><trkpt lat="45.35276" lon="7.8400367"><ele>341.4</ele><time>2026-05-01T15:12:21.953Z</time></trkpt><trkpt lat="45.3528333" lon="7.83999"><ele>341.0</ele><time>2026-05-01T15:12:22.953Z</time></trkpt><trkpt lat="45.35291" lon="7.8399433"><ele>341.0</ele><time>2026-05-01T15:12:23.952Z</time></trkpt><trkpt lat="45.3529683" lon="7.8398867"><ele>341.0</ele><time>2026-05-01T15:12:24.952Z</time></trkpt><trkpt lat="45.3530133" lon="7.839815"><ele>341.0</ele><time>2026-05-01T15:12:25.952Z</time></trkpt><trkpt lat="45.35305" lon="7.8397267"><ele>341.0</ele><time>2026-05-01T15:12:26.952Z</time></trkpt><trkpt lat="45.3530733" lon="7.8396383"><ele>341.0</ele><time>2026-05-01T15:12:27.952Z</time></trkpt><trkpt lat="45.3530817" lon="7.8394667"><ele>341.0</ele><time>2026-05-01T15:12:29.952Z</time></trkpt><trkpt lat="45.35316" lon="7.8392683"><ele>340.6</ele><time>2026-05-01T15:12:32.952Z</time></trkpt><trkpt lat="45.3532217" lon="7.8391983"><ele>340.20000000000005</ele><time>2026-05-01T15:12:33.952Z</time></trkpt><trkpt lat="45.35328" lon="7.8391283"><ele>339.79999999999995</ele><time>2026-05-01T15:12:34.952Z</time></trkpt><trkpt lat="45.3533267" lon="7.8390583"><ele>339.4</ele><time>2026-05-01T15:12:35.952Z</time></trkpt><trkpt lat="45.3534083" lon="7.8389417"><ele>339.0</ele><time>2026-05-01T15:12:37.952Z</time></trkpt><trkpt lat="45.35351" lon="7.8388317"><ele>339.0</ele><time>2026-05-01T15:12:39.952Z</time></trkpt><trkpt lat="45.3535717" lon="7.8387767"><ele>339.0</ele><time>2026-05-01T15:12:40.953Z</time></trkpt><trkpt lat="45.35364" lon="7.8387083"><ele>339.0</ele><time>2026-05-01T15:12:41.953Z</time></trkpt><trkpt lat="45.353695" lon="7.838635"><ele>339.0</ele><time>2026-05-01T15:12:42.952Z</time></trkpt><trkpt lat="45.3537433" lon="7.8385667"><ele>339.0</ele><time>2026-05-01T15:12:43.953Z</time></trkpt><trkpt lat="45.35377" lon="7.8384817"><ele>339.0</ele><time>2026-05-01T15:12:44.952Z</time></trkpt><trkpt lat="45.3537867" lon="7.8383667"><ele>339.0</ele><time>2026-05-01T15:12:45.953Z</time></trkpt><trkpt lat="45.3537917" lon="7.8382367"><ele>338.79999999999995</ele><time>2026-05-01T15:12:46.952Z</time></trkpt><trkpt lat="45.353805" lon="7.838115"><ele>338.59999999999997</ele><time>2026-05-01T15:12:47.953Z</time></trkpt><trkpt lat="45.353825" lon="7.8380117"><ele>338.4</ele><time>2026-05-01T15:12:48.952Z</time></trkpt><trkpt lat="45.3538667" lon="7.8379233"><ele>338.2</ele><time>2026-05-01T15:12:49.953Z</time></trkpt><trkpt lat="45.3539133" lon="7.837845"><ele>338.0</ele><time>2026-05-01T15:12:50.952Z</time></trkpt><trkpt lat="45.3540667" lon="7.8377133"><ele>342.75</ele><time>2026-05-01T15:12:52.953Z</time></trkpt><trkpt lat="45.35417" lon="7.83763"><ele>347.5</ele><time>2026-05-01T15:12:53.953Z</time></trkpt><trkpt lat="45.3542733" lon="7.8375367"><ele>352.25</ele><time>2026-05-01T15:12:54.952Z</time></trkpt><trkpt lat="45.3543817" lon="7.8374383"><ele>357.0</ele><time>2026-05-01T15:12:55.952Z</time></trkpt><trkpt lat="45.3544717" lon="7.8373383"><ele>357.0</ele><time>2026-05-01T15:12:56.953Z</time></trkpt><trkpt lat="45.354555" lon="7.837235"><ele>357.0</ele><time>2026-05-01T15:12:57.952Z</time></trkpt><trkpt lat="45.3546383" lon="7.83712"><ele>357.0</ele><time>2026-05-01T15:12:58.952Z</time></trkpt><trkpt lat="45.3547117" lon="7.8370117"><ele>357.0</ele><time>2026-05-01T15:12:59.953Z</time></trkpt><trkpt lat="45.354775" lon="7.83689"><ele>357.0</ele><time>2026-05-01T15:13:00.953Z</time></trkpt><trkpt lat="45.354835" lon="7.8367667"><ele>358.20000000000005</ele><time>2026-05-01T15:13:01.953Z</time></trkpt><trkpt lat="45.3549017" lon="7.8366383"><ele>359.4</ele><time>2026-05-01T15:13:02.952Z</time></trkpt><trkpt lat="45.3549667" lon="7.83652"><ele>360.6</ele><time>2026-05-01T15:13:03.952Z</time></trkpt><trkpt lat="45.3550283" lon="7.8364333"><ele>361.79999999999995</ele><time>2026-05-01T15:13:04.952Z</time></trkpt><trkpt lat="45.3550967" lon="7.8363633"><ele>363.0</ele><time>2026-05-01T15:13:05.952Z</time></trkpt><trkpt lat="45.35517" lon="7.8362983"><ele>363.0</ele><time>2026-05-01T15:13:06.953Z</time></trkpt><trkpt lat="45.3552217" lon="7.8362433"><ele>363.0</ele><time>2026-05-01T15:13:07.952Z</time></trkpt><trkpt lat="45.355285" lon="7.8361617"><ele>363.0</ele><time>2026-05-01T15:13:09.952Z</time></trkpt><trkpt lat="45.3553183" lon="7.8360767"><ele>363.0</ele><time>2026-05-01T15:13:11.952Z</time></trkpt><trkpt lat="45.355495" lon="7.8358667"><ele>363.0</ele><time>2026-05-01T15:13:16.953Z</time></trkpt><trkpt lat="45.355555" lon="7.8358033"><ele>366.25</ele><time>2026-05-01T15:13:17.952Z</time></trkpt><trkpt lat="45.35562" lon="7.8357283"><ele>369.5</ele><time>2026-05-01T15:13:18.953Z</time></trkpt><trkpt lat="45.3557033" lon="7.835635"><ele>372.75</ele><time>2026-05-01T15:13:19.952Z</time></trkpt><trkpt lat="45.3558117" lon="7.835495"><ele>376.0</ele><time>2026-05-01T15:13:20.953Z</time></trkpt><trkpt lat="45.3559167" lon="7.8353433"><ele>376.0</ele><time>2026-05-01T15:13:21.952Z</time></trkpt><trkpt lat="45.3560183" lon="7.8352333"><ele>376.0</ele><time>2026-05-01T15:13:22.952Z</time></trkpt><trkpt lat="45.3561283" lon="7.8351133"><ele>376.0</ele><time>2026-05-01T15:13:23.952Z</time></trkpt><trkpt lat="45.356255" lon="7.8349633"><ele>376.0</ele><time>2026-05-01T15:13:24.953Z</time></trkpt><trkpt lat="45.3563733" lon="7.8348383"><ele>378.5</ele><time>2026-05-01T15:13:25.952Z</time></trkpt><trkpt lat="45.3564867" lon="7.8347117"><ele>381.0</ele><time>2026-05-01T15:13:26.953Z</time></trkpt><trkpt lat="45.35658" lon="7.83458"><ele>383.5</ele><time>2026-05-01T15:13:27.952Z</time></trkpt><trkpt lat="45.3566583" lon="7.83446"><ele>386.0</ele><time>2026-05-01T15:13:28.952Z</time></trkpt><trkpt lat="45.3567167" lon="7.834385"><ele>386.0</ele><time>2026-05-01T15:13:29.952Z</time></trkpt><trkpt lat="45.3568067" lon="7.8343133"><ele>386.0</ele><time>2026-05-01T15:13:31.952Z</time></trkpt><trkpt lat="45.3568633" lon="7.83423"><ele>386.0</ele><time>2026-05-01T15:13:45.952Z</time></trkpt><trkpt lat="45.3569817" lon="7.8341317"><ele>386.0</ele><time>2026-05-01T15:13:53.952Z</time></trkpt><trkpt lat="45.3570533" lon="7.8340667"><ele>386.0</ele><time>2026-05-01T15:13:57.952Z</time></trkpt><trkpt lat="45.3571183" lon="7.8340617"><ele>384.4</ele><time>2026-05-01T15:14:00.953Z</time></trkpt><trkpt lat="45.357185" lon="7.8340567"><ele>382.8</ele><time>2026-05-01T15:14:03.952Z</time></trkpt><trkpt lat="45.357265" lon="7.8340617"><ele>381.2</ele><time>2026-05-01T15:14:06.952Z</time></trkpt><trkpt lat="45.3573933" lon="7.83404"><ele>379.59999999999997</ele><time>2026-05-01T15:14:10.952Z</time></trkpt><trkpt lat="45.3574783" lon="7.8339283"><ele>378.0</ele><time>2026-05-01T15:14:12.952Z</time></trkpt><trkpt lat="45.35755" lon="7.8338433"><ele>378.0</ele><time>2026-05-01T15:14:14.952Z</time></trkpt><trkpt lat="45.3575633" lon="7.8337517"><ele>378.0</ele><time>2026-05-01T15:14:16.953Z</time></trkpt><trkpt lat="45.357495" lon="7.833645"><ele>378.0</ele><time>2026-05-01T15:14:18.953Z</time></trkpt><trkpt lat="45.3574217" lon="7.833575"><ele>378.0</ele><time>2026-05-01T15:14:19.952Z</time></trkpt><trkpt lat="45.3573267" lon="7.8334967"><ele>378.0</ele><time>2026-05-01T15:14:20.952Z</time></trkpt><trkpt lat="45.357205" lon="7.8334067"><ele>381.0</ele><time>2026-05-01T15:14:21.953Z</time></trkpt><trkpt lat="45.3570933" lon="7.8333183"><ele>384.0</ele><time>2026-05-01T15:14:22.952Z</time></trkpt><trkpt lat="45.3570017" lon="7.833225"><ele>387.0</ele><time>2026-05-01T15:14:23.952Z</time></trkpt><trkpt lat="45.35693" lon="7.8331283"><ele>390.0</ele><time>2026-05-01T15:14:24.952Z</time></trkpt><trkpt lat="45.3568733" lon="7.8330217"><ele>393.0</ele><time>2026-05-01T15:14:25.952Z</time></trkpt><trkpt lat="45.3568317" lon="7.83291"><ele>393.0</ele><time>2026-05-01T15:14:26.952Z</time></trkpt><trkpt lat="45.3567967" lon="7.8327867"><ele>393.0</ele><time>2026-05-01T15:14:27.953Z</time></trkpt><trkpt lat="45.356755" lon="7.8325517"><ele>393.0</ele><time>2026-05-01T15:14:29.952Z</time></trkpt><trkpt lat="45.356665" lon="7.8324217"><ele>393.0</ele><time>2026-05-01T15:14:31.953Z</time></trkpt><trkpt lat="45.356585" lon="7.8323667"><ele>391.2</ele><time>2026-05-01T15:14:32.952Z</time></trkpt><trkpt lat="45.3564867" lon="7.8323"><ele>389.4</ele><time>2026-05-01T15:14:33.953Z</time></trkpt><trkpt lat="45.356385" lon="7.8322317"><ele>387.59999999999997</ele><time>2026-05-01T15:14:34.953Z</time></trkpt><trkpt lat="45.356305" lon="7.8321683"><ele>385.79999999999995</ele><time>2026-05-01T15:14:35.953Z</time></trkpt><trkpt lat="45.3562283" lon="7.83207"><ele>384.0</ele><time>2026-05-01T15:14:37.953Z</time></trkpt><trkpt lat="45.3561617" lon="7.8320383"><ele>384.0</ele><time>2026-05-01T15:14:39.953Z</time></trkpt><trkpt lat="45.3560483" lon="7.8319917"><ele>384.0</ele><time>2026-05-01T15:14:41.953Z</time></trkpt><trkpt lat="45.3559583" lon="7.83197"><ele>384.0</ele><time>2026-05-01T15:14:43.952Z</time></trkpt><trkpt lat="45.3559917" lon="7.8318683"><ele>384.0</ele><time>2026-05-01T15:14:47.952Z</time></trkpt><trkpt lat="45.3560533" lon="7.8318317"><ele>384.0</ele><time>2026-05-01T15:14:48.952Z</time></trkpt><trkpt lat="45.356225" lon="7.8317383"><ele>384.0</ele><time>2026-05-01T15:14:50.953Z</time></trkpt><trkpt lat="45.3563" lon="7.8316983"><ele>384.0</ele><time>2026-05-01T15:14:51.952Z</time></trkpt><trkpt lat="45.3564067" lon="7.83171"><ele>384.0</ele><time>2026-05-01T15:14:53.952Z</time></trkpt><trkpt lat="45.35651" lon="7.8318083"><ele>384.0</ele><time>2026-05-01T15:14:55.952Z</time></trkpt><trkpt lat="45.3565683" lon="7.831865"><ele>384.0</ele><time>2026-05-01T15:14:56.952Z</time></trkpt><trkpt lat="45.3566317" lon="7.83191"><ele>383.6</ele><time>2026-05-01T15:14:57.953Z</time></trkpt><trkpt lat="45.3567283" lon="7.831965"><ele>383.2</ele><time>2026-05-01T15:14:59.953Z</time></trkpt><trkpt lat="45.35682" lon="7.8319883"><ele>382.8</ele><time>2026-05-01T15:15:01.952Z</time></trkpt><trkpt lat="45.35688" lon="7.8320183"><ele>382.40000000000003</ele><time>2026-05-01T15:15:03.953Z</time></trkpt><trkpt lat="45.3569967" lon="7.83198"><ele>382.0</ele><time>2026-05-01T15:15:29.952Z</time></trkpt><trkpt lat="45.3571233" lon="7.8319"><ele>382.0</ele><time>2026-05-01T15:15:33.952Z</time></trkpt><trkpt lat="45.3571983" lon="7.83186"><ele>382.0</ele><time>2026-05-01T15:15:35.952Z</time></trkpt><trkpt lat="45.3572617" lon="7.83185"><ele>382.0</ele><time>2026-05-01T15:15:37.952Z</time></trkpt><trkpt lat="45.3573367" lon="7.83183"><ele>382.0</ele><time>2026-05-01T15:15:40.952Z</time></trkpt><trkpt lat="45.3574333" lon="7.8317567"><ele>382.0</ele><time>2026-05-01T15:15:43.953Z</time></trkpt><trkpt lat="45.35756" lon="7.831655"><ele>386.5</ele><time>2026-05-01T15:15:57.952Z</time></trkpt><trkpt lat="45.357695" lon="7.8315733"><ele>391.0</ele><time>2026-05-01T15:16:01.952Z</time></trkpt><trkpt lat="45.35779" lon="7.8315333"><ele>395.5</ele><time>2026-05-01T15:16:03.952Z</time></trkpt><trkpt lat="45.3578817" lon="7.8314933"><ele>400.0</ele><time>2026-05-01T15:16:05.953Z</time></trkpt><trkpt lat="45.3579817" lon="7.8314167"><ele>401.1666666666667</ele><time>2026-05-01T15:16:07.952Z</time></trkpt><trkpt lat="45.35808" lon="7.8313317"><ele>402.33333333333337</ele><time>2026-05-01T15:16:09.952Z</time></trkpt><trkpt lat="45.3581617" lon="7.8313167"><ele>403.5</ele><time>2026-05-01T15:16:11.952Z</time></trkpt><trkpt lat="45.3582333" lon="7.8312967"><ele>404.66666666666663</ele><time>2026-05-01T15:16:13.952Z</time></trkpt><trkpt lat="45.3583183" lon="7.83128"><ele>405.8333333333333</ele><time>2026-05-01T15:16:15.952Z</time></trkpt><trkpt lat="45.3584" lon="7.8312567"><ele>407.0</ele><time>2026-05-01T15:16:17.952Z</time></trkpt><trkpt lat="45.35849" lon="7.831245"><ele>407.0</ele><time>2026-05-01T15:16:19.952Z</time></trkpt><trkpt lat="45.3586917" lon="7.8312833"><ele>407.0</ele><time>2026-05-01T15:16:23.952Z</time></trkpt><trkpt lat="45.3587883" lon="7.8313117"><ele>407.0</ele><time>2026-05-01T15:16:25.953Z</time></trkpt><trkpt lat="45.3588483" lon="7.831345"><ele>407.0</ele><time>2026-05-01T15:16:27.953Z</time></trkpt><trkpt lat="45.3589133" lon="7.8313783"><ele>407.0</ele><time>2026-05-01T15:16:30.953Z</time></trkpt><trkpt lat="45.3590217" lon="7.8313667"><ele>407.0</ele><time>2026-05-01T15:16:33.953Z</time></trkpt><trkpt lat="45.3591333" lon="7.8313267"><ele>407.0</ele><time>2026-05-01T15:16:35.952Z</time></trkpt><trkpt lat="45.3592517" lon="7.8312883"><ele>407.0</ele><time>2026-05-01T15:16:37.952Z</time></trkpt><trkpt lat="45.3593167" lon="7.8312833"><ele>407.0</ele><time>2026-05-01T15:16:38.953Z</time></trkpt><trkpt lat="45.359395" lon="7.8312783"><ele>407.0</ele><time>2026-05-01T15:16:39.953Z</time></trkpt><trkpt lat="45.359465" lon="7.8312717"><ele>407.0</ele><time>2026-05-01T15:16:40.952Z</time></trkpt><trkpt lat="45.35961" lon="7.8312933"><ele>407.0</ele><time>2026-05-01T15:16:42.952Z</time></trkpt><trkpt lat="45.359675" lon="7.831285"><ele>407.0</ele><time>2026-05-01T15:16:43.952Z</time></trkpt><trkpt lat="45.3597767" lon="7.8312817"><ele>407.0</ele><time>2026-05-01T15:16:45.952Z</time></trkpt><trkpt lat="45.3598833" lon="7.831295"><ele>407.0</ele><time>2026-05-01T15:16:47.953Z</time></trkpt><trkpt lat="45.3599883" lon="7.831315"><ele>407.8333333333333</ele><time>2026-05-01T15:16:49.952Z</time></trkpt><trkpt lat="45.3601117" lon="7.8313333"><ele>408.66666666666663</ele><time>2026-05-01T15:16:51.953Z</time></trkpt><trkpt lat="45.3601917" lon="7.83136"><ele>409.5</ele><time>2026-05-01T15:16:52.953Z</time></trkpt><trkpt lat="45.3602617" lon="7.83139"><ele>410.33333333333337</ele><time>2026-05-01T15:16:53.952Z</time></trkpt><trkpt lat="45.360335" lon="7.8314133"><ele>411.1666666666667</ele><time>2026-05-01T15:16:54.952Z</time></trkpt><trkpt lat="45.3604233" lon="7.831415"><ele>412.0</ele><time>2026-05-01T15:16:55.952Z</time></trkpt><trkpt lat="45.360505" lon="7.8314033"><ele>413.25</ele><time>2026-05-01T15:16:56.952Z</time></trkpt><trkpt lat="45.3605817" lon="7.831375"><ele>414.5</ele><time>2026-05-01T15:16:57.952Z</time></trkpt><trkpt lat="45.3606917" lon="7.8313867"><ele>415.75</ele><time>2026-05-01T15:16:59.952Z</time></trkpt><trkpt lat="45.3607983" lon="7.831445"><ele>417.0</ele><time>2026-05-01T15:17:01.952Z</time></trkpt><trkpt lat="45.361025" lon="7.8314683"><ele>417.0</ele><time>2026-05-01T15:17:05.953Z</time></trkpt><trkpt lat="45.3611067" lon="7.831455"><ele>417.0</ele><time>2026-05-01T15:17:06.952Z</time></trkpt><trkpt lat="45.3611867" lon="7.831435"><ele>417.0</ele><time>2026-05-01T15:17:07.952Z</time></trkpt><trkpt lat="45.3612683" lon="7.8314017"><ele>417.0</ele><time>2026-05-01T15:17:08.953Z</time></trkpt><trkpt lat="45.361335" lon="7.8313717"><ele>417.0</ele><time>2026-05-01T15:17:09.952Z</time></trkpt><trkpt lat="45.361445" lon="7.8313517"><ele>417.0</ele><time>2026-05-01T15:17:11.953Z</time></trkpt><trkpt lat="45.3615667" lon="7.8314"><ele>418.20000000000005</ele><time>2026-05-01T15:17:13.952Z</time></trkpt><trkpt lat="45.3616783" lon="7.83147"><ele>419.4</ele><time>2026-05-01T15:17:15.952Z</time></trkpt><trkpt lat="45.361785" lon="7.8315067"><ele>420.6</ele><time>2026-05-01T15:17:17.952Z</time></trkpt><trkpt lat="45.36186" lon="7.8315217"><ele>421.79999999999995</ele><time>2026-05-01T15:17:18.953Z</time></trkpt><trkpt lat="45.3619417" lon="7.8315333"><ele>423.0</ele><time>2026-05-01T15:17:19.952Z</time></trkpt><trkpt lat="45.3620217" lon="7.8315283"><ele>423.0</ele><time>2026-05-01T15:17:20.953Z</time></trkpt><trkpt lat="45.362095" lon="7.8314983"><ele>423.0</ele><time>2026-05-01T15:17:21.953Z</time></trkpt><trkpt lat="45.3621617" lon="7.83148"><ele>423.0</ele><time>2026-05-01T15:17:22.952Z</time></trkpt><trkpt lat="45.36233" lon="7.8314717"><ele>423.0</ele><time>2026-05-01T15:17:24.952Z</time></trkpt><trkpt lat="45.3624133" lon="7.831485"><ele>423.0</ele><time>2026-05-01T15:17:25.952Z</time></trkpt><trkpt lat="45.3624817" lon="7.8314917"><ele>423.8333333333333</ele><time>2026-05-01T15:17:26.952Z</time></trkpt><trkpt lat="45.362565" lon="7.83149"><ele>424.66666666666663</ele><time>2026-05-01T15:17:28.952Z</time></trkpt><trkpt lat="45.3626583" lon="7.831455"><ele>425.5</ele><time>2026-05-01T15:17:30.953Z</time></trkpt><trkpt lat="45.36276" lon="7.831415"><ele>426.3333333333333</ele><time>2026-05-01T15:17:32.952Z</time></trkpt><trkpt lat="45.362845" lon="7.8313733"><ele>427.16666666666663</ele><time>2026-05-01T15:17:34.952Z</time></trkpt><trkpt lat="45.3629067" lon="7.8313467"><ele>428.0</ele><time>2026-05-01T15:17:35.952Z</time></trkpt><trkpt lat="45.3630233" lon="7.8313"><ele>427.66666666666663</ele><time>2026-05-01T15:17:37.952Z</time></trkpt><trkpt lat="45.3631533" lon="7.8312867"><ele>427.3333333333333</ele><time>2026-05-01T15:17:39.952Z</time></trkpt><trkpt lat="45.3632317" lon="7.8312983"><ele>427.0</ele><time>2026-05-01T15:17:40.952Z</time></trkpt><trkpt lat="45.3633" lon="7.8313017"><ele>426.66666666666663</ele><time>2026-05-01T15:17:41.952Z</time></trkpt><trkpt lat="45.3633633" lon="7.83128"><ele>426.3333333333333</ele><time>2026-05-01T15:17:42.953Z</time></trkpt><trkpt lat="45.3634283" lon="7.831255"><ele>426.0</ele><time>2026-05-01T15:17:43.953Z</time></trkpt><trkpt lat="45.3635883" lon="7.8311733"><ele>426.0</ele><time>2026-05-01T15:17:45.952Z</time></trkpt><trkpt lat="45.3636667" lon="7.8311283"><ele>426.0</ele><time>2026-05-01T15:17:46.952Z</time></trkpt><trkpt lat="45.3637267" lon="7.831085"><ele>426.0</ele><time>2026-05-01T15:17:47.952Z</time></trkpt><trkpt lat="45.363785" lon="7.8310483"><ele>426.0</ele><time>2026-05-01T15:17:48.953Z</time></trkpt><trkpt lat="45.3638717" lon="7.8309983"><ele>426.0</ele><time>2026-05-01T15:17:50.952Z</time></trkpt><trkpt lat="45.3639483" lon="7.830935"><ele>426.0</ele><time>2026-05-01T15:17:52.952Z</time></trkpt><trkpt lat="45.3640333" lon="7.83093"><ele>425.3333333333333</ele><time>2026-05-01T15:17:54.952Z</time></trkpt><trkpt lat="45.364105" lon="7.8309517"><ele>424.66666666666663</ele><time>2026-05-01T15:17:56.953Z</time></trkpt><trkpt lat="45.3641867" lon="7.83092"><ele>424.0</ele><time>2026-05-01T15:17:58.952Z</time></trkpt><trkpt lat="45.36426" lon="7.8308667"><ele>423.3333333333333</ele><time>2026-05-01T15:18:00.952Z</time></trkpt><trkpt lat="45.3643433" lon="7.8308417"><ele>422.66666666666663</ele><time>2026-05-01T15:18:02.952Z</time></trkpt><trkpt lat="45.36443" lon="7.83083"><ele>422.0</ele><time>2026-05-01T15:18:04.952Z</time></trkpt><trkpt lat="45.3645817" lon="7.830885"><ele>422.0</ele><time>2026-05-01T15:18:08.953Z</time></trkpt><trkpt lat="45.3646617" lon="7.830935"><ele>422.0</ele><time>2026-05-01T15:18:11.952Z</time></trkpt><trkpt lat="45.3647433" lon="7.830945"><ele>422.0</ele><time>2026-05-01T15:18:14.953Z</time></trkpt><trkpt lat="45.3648167" lon="7.830975"><ele>422.0</ele><time>2026-05-01T15:18:16.953Z</time></trkpt><trkpt lat="45.3648833" lon="7.83101"><ele>422.0</ele><time>2026-05-01T15:18:18.953Z</time></trkpt><trkpt lat="45.3649467" lon="7.8310333"><ele>422.0</ele><time>2026-05-01T15:18:20.952Z</time></trkpt><trkpt lat="45.36501" lon="7.8310467"><ele>422.0</ele><time>2026-05-01T15:18:22.952Z</time></trkpt><trkpt lat="45.365075" lon="7.8310267"><ele>421.8</ele><time>2026-05-01T15:18:24.952Z</time></trkpt><trkpt lat="45.3651417" lon="7.8309883"><ele>421.6</ele><time>2026-05-01T15:18:26.952Z</time></trkpt><trkpt lat="45.3652467" lon="7.8308217"><ele>421.40000000000003</ele><time>2026-05-01T15:18:31.952Z</time></trkpt><trkpt lat="45.3653133" lon="7.8306683"><ele>421.20000000000005</ele><time>2026-05-01T15:18:33.952Z</time></trkpt><trkpt lat="45.3653567" lon="7.830565"><ele>421.0</ele><time>2026-05-01T15:18:35.952Z</time></trkpt><trkpt lat="45.3653733" lon="7.83045"><ele>421.6</ele><time>2026-05-01T15:18:38.952Z</time></trkpt><trkpt lat="45.3654117" lon="7.8303617"><ele>422.20000000000005</ele><time>2026-05-01T15:18:40.953Z</time></trkpt><trkpt lat="45.3655117" lon="7.8302417"><ele>422.79999999999995</ele><time>2026-05-01T15:18:42.952Z</time></trkpt><trkpt lat="45.3656283" lon="7.83016"><ele>423.4</ele><time>2026-05-01T15:18:44.953Z</time></trkpt><trkpt lat="45.3656983" lon="7.8301367"><ele>424.0</ele><time>2026-05-01T15:18:45.952Z</time></trkpt><trkpt lat="45.3657717" lon="7.8301267"><ele>425.4</ele><time>2026-05-01T15:18:46.952Z</time></trkpt><trkpt lat="45.3658567" lon="7.8301117"><ele>426.79999999999995</ele><time>2026-05-01T15:18:47.952Z</time></trkpt><trkpt lat="45.366025" lon="7.83003"><ele>428.20000000000005</ele><time>2026-05-01T15:18:49.952Z</time></trkpt><trkpt lat="45.3661033" lon="7.8299833"><ele>429.6</ele><time>2026-05-01T15:18:50.952Z</time></trkpt><trkpt lat="45.366165" lon="7.82995"><ele>431.0</ele><time>2026-05-01T15:18:51.952Z</time></trkpt><trkpt lat="45.3662533" lon="7.8298817"><ele>430.99999999999994</ele><time>2026-05-01T15:18:53.953Z</time></trkpt><trkpt lat="45.3663083" lon="7.829835"><ele>431.0</ele><time>2026-05-01T15:18:54.952Z</time></trkpt><trkpt lat="45.366375" lon="7.8297817"><ele>431.0</ele><time>2026-05-01T15:18:55.952Z</time></trkpt><trkpt lat="45.3664283" lon="7.8297317"><ele>431.0</ele><time>2026-05-01T15:18:56.952Z</time></trkpt><trkpt lat="45.3665167" lon="7.8296617"><ele>430.99999999999994</ele><time>2026-05-01T15:18:58.953Z</time></trkpt><trkpt lat="45.366595" lon="7.829635"><ele>431.0</ele><time>2026-05-01T15:19:00.953Z</time></trkpt><trkpt lat="45.3667233" lon="7.8296433"><ele>431.25</ele><time>2026-05-01T15:19:02.952Z</time></trkpt><trkpt lat="45.3668467" lon="7.8296867"><ele>431.5</ele><time>2026-05-01T15:19:04.953Z</time></trkpt><trkpt lat="45.36694" lon="7.8297267"><ele>431.75</ele><time>2026-05-01T15:19:06.953Z</time></trkpt><trkpt lat="45.3670317" lon="7.8297517"><ele>432.0</ele><time>2026-05-01T15:19:08.952Z</time></trkpt><trkpt lat="45.3672217" lon="7.8297733"><ele>431.5</ele><time>2026-05-01T15:19:12.953Z</time></trkpt><trkpt lat="45.3672983" lon="7.82979"><ele>431.0</ele><time>2026-05-01T15:19:14.952Z</time></trkpt><trkpt lat="45.3673667" lon="7.8297967"><ele>430.5</ele><time>2026-05-01T15:19:16.952Z</time></trkpt><trkpt lat="45.367455" lon="7.8298133"><ele>430.0</ele><time>2026-05-01T15:19:19.952Z</time></trkpt><trkpt lat="45.3675433" lon="7.8298267"><ele>429.5</ele><time>2026-05-01T15:19:22.953Z</time></trkpt><trkpt lat="45.3676183" lon="7.829895"><ele>429.0</ele><time>2026-05-01T15:19:24.953Z</time></trkpt><trkpt lat="45.3676917" lon="7.8299817"><ele>429.0</ele><time>2026-05-01T15:19:26.952Z</time></trkpt><trkpt lat="45.3677717" lon="7.8300517"><ele>429.0</ele><time>2026-05-01T15:19:28.953Z</time></trkpt><trkpt lat="45.3678417" lon="7.8300833"><ele>429.0</ele><time>2026-05-01T15:19:30.952Z</time></trkpt><trkpt lat="45.3679917" lon="7.8301133"><ele>429.0</ele><time>2026-05-01T15:19:34.953Z</time></trkpt><trkpt lat="45.3680483" lon="7.8301667"><ele>429.0</ele><time>2026-05-01T15:19:36.952Z</time></trkpt><trkpt lat="45.36812" lon="7.8301667"><ele>429.2</ele><time>2026-05-01T15:19:40.952Z</time></trkpt><trkpt lat="45.368205" lon="7.8301683"><ele>429.4</ele><time>2026-05-01T15:19:43.953Z</time></trkpt><trkpt lat="45.3682817" lon="7.8301367"><ele>429.6</ele><time>2026-05-01T15:19:46.952Z</time></trkpt><trkpt lat="45.3683617" lon="7.8301083"><ele>429.8</ele><time>2026-05-01T15:19:48.952Z</time></trkpt><trkpt lat="45.36845" lon="7.830055"><ele>430.0</ele><time>2026-05-01T15:19:50.952Z</time></trkpt><trkpt lat="45.3685283" lon="7.8299483"><ele>430.0</ele><time>2026-05-01T15:19:52.953Z</time></trkpt><trkpt lat="45.3685917" lon="7.8297833"><ele>430.0</ele><time>2026-05-01T15:19:54.952Z</time></trkpt><trkpt lat="45.3686567" lon="7.8296617"><ele>430.0</ele><time>2026-05-01T15:19:56.953Z</time></trkpt><trkpt lat="45.36872" lon="7.8296117"><ele>430.0</ele><time>2026-05-01T15:19:58.953Z</time></trkpt><trkpt lat="45.3687867" lon="7.829585"><ele>430.0</ele><time>2026-05-01T15:20:00.952Z</time></trkpt><trkpt lat="45.3689033" lon="7.8295517"><ele>431.50000000000006</ele><time>2026-05-01T15:20:02.952Z</time></trkpt><trkpt lat="45.36897" lon="7.82953"><ele>433.0</ele><time>2026-05-01T15:20:03.952Z</time></trkpt><trkpt lat="45.3690383" lon="7.8295133"><ele>434.5</ele><time>2026-05-01T15:20:04.952Z</time></trkpt><trkpt lat="45.369155" lon="7.829485"><ele>436.0</ele><time>2026-05-01T15:20:06.952Z</time></trkpt><trkpt lat="45.3692367" lon="7.8294983"><ele>437.50000000000006</ele><time>2026-05-01T15:20:08.952Z</time></trkpt><trkpt lat="45.369335" lon="7.8295183"><ele>439.0</ele><time>2026-05-01T15:20:10.952Z</time></trkpt><trkpt lat="45.369435" lon="7.8295883"><ele>439.0</ele><time>2026-05-01T15:20:12.952Z</time></trkpt><trkpt lat="45.369485" lon="7.8296467"><ele>439.0</ele><time>2026-05-01T15:20:13.953Z</time></trkpt><trkpt lat="45.3696333" lon="7.8297717"><ele>439.0</ele><time>2026-05-01T15:20:16.953Z</time></trkpt><trkpt lat="45.3697233" lon="7.8298167"><ele>439.0</ele><time>2026-05-01T15:20:18.953Z</time></trkpt><trkpt lat="45.36983" lon="7.82985"><ele>439.0</ele><time>2026-05-01T15:20:20.952Z</time></trkpt><trkpt lat="45.3699367" lon="7.8298633"><ele>440.1666666666667</ele><time>2026-05-01T15:20:22.952Z</time></trkpt><trkpt lat="45.3700483" lon="7.8298883"><ele>441.33333333333337</ele><time>2026-05-01T15:20:24.953Z</time></trkpt><trkpt lat="45.3701533" lon="7.8298817"><ele>442.5</ele><time>2026-05-01T15:20:26.952Z</time></trkpt><trkpt lat="45.3702383" lon="7.8298583"><ele>443.66666666666663</ele><time>2026-05-01T15:20:28.953Z</time></trkpt><trkpt lat="45.3703033" lon="7.8298367"><ele>444.8333333333333</ele><time>2026-05-01T15:20:30.952Z</time></trkpt><trkpt lat="45.370375" lon="7.8298483"><ele>446.0</ele><time>2026-05-01T15:20:32.953Z</time></trkpt><trkpt lat="45.3704517" lon="7.82987"><ele>445.6</ele><time>2026-05-01T15:20:34.952Z</time></trkpt><trkpt lat="45.3705983" lon="7.82992"><ele>445.20000000000005</ele><time>2026-05-01T15:20:38.952Z</time></trkpt><trkpt lat="45.3706833" lon="7.8299483"><ele>444.79999999999995</ele><time>2026-05-01T15:20:40.952Z</time></trkpt><trkpt lat="45.37077" lon="7.8299683"><ele>444.4</ele><time>2026-05-01T15:20:42.952Z</time></trkpt><trkpt lat="45.370845" lon="7.8299983"><ele>444.0</ele><time>2026-05-01T15:20:44.952Z</time></trkpt><trkpt lat="45.3709117" lon="7.8300433"><ele>444.0</ele><time>2026-05-01T15:20:45.953Z</time></trkpt><trkpt lat="45.3709883" lon="7.8300817"><ele>444.0</ele><time>2026-05-01T15:20:47.952Z</time></trkpt><trkpt lat="45.3710583" lon="7.8301017"><ele>444.0</ele><time>2026-05-01T15:20:49.952Z</time></trkpt><trkpt lat="45.3711417" lon="7.830105"><ele>444.0</ele><time>2026-05-01T15:20:51.953Z</time></trkpt><trkpt lat="45.3712383" lon="7.8300867"><ele>444.0</ele><time>2026-05-01T15:20:53.952Z</time></trkpt><trkpt lat="45.3712933" lon="7.83003"><ele>444.0</ele><time>2026-05-01T15:20:54.952Z</time></trkpt><trkpt lat="45.3713467" lon="7.8299667"><ele>443.75</ele><time>2026-05-01T15:20:55.952Z</time></trkpt><trkpt lat="45.371475" lon="7.829855"><ele>443.5</ele><time>2026-05-01T15:20:57.953Z</time></trkpt><trkpt lat="45.371595" lon="7.8298317"><ele>443.25</ele><time>2026-05-01T15:20:59.952Z</time></trkpt><trkpt lat="45.37171" lon="7.8298567"><ele>443.0</ele><time>2026-05-01T15:21:01.952Z</time></trkpt><trkpt lat="45.371775" lon="7.829865"><ele>442.99999999999994</ele><time>2026-05-01T15:21:02.952Z</time></trkpt><trkpt lat="45.3718883" lon="7.8298783"><ele>443.0</ele><time>2026-05-01T15:21:04.953Z</time></trkpt><trkpt lat="45.3719633" lon="7.8298767"><ele>443.0</ele><time>2026-05-01T15:21:06.953Z</time></trkpt><trkpt lat="45.3720383" lon="7.8298667"><ele>443.0</ele><time>2026-05-01T15:21:08.952Z</time></trkpt><trkpt lat="45.3721417" lon="7.82982"><ele>442.99999999999994</ele><time>2026-05-01T15:21:10.952Z</time></trkpt><trkpt lat="45.3722067" lon="7.8297833"><ele>443.0</ele><time>2026-05-01T15:21:11.952Z</time></trkpt><trkpt lat="45.372295" lon="7.8297167"><ele>444.25</ele><time>2026-05-01T15:21:13.952Z</time></trkpt><trkpt lat="45.3723983" lon="7.829635"><ele>445.5</ele><time>2026-05-01T15:21:15.952Z</time></trkpt><trkpt lat="45.3724867" lon="7.8295667"><ele>446.75</ele><time>2026-05-01T15:21:17.952Z</time></trkpt><trkpt lat="45.3726533" lon="7.8295017"><ele>448.0</ele><time>2026-05-01T15:21:21.952Z</time></trkpt><trkpt lat="45.37277" lon="7.82949"><ele>448.0</ele><time>2026-05-01T15:21:23.952Z</time></trkpt><trkpt lat="45.372885" lon="7.8295133"><ele>447.99999999999994</ele><time>2026-05-01T15:21:25.953Z</time></trkpt><trkpt lat="45.3729867" lon="7.8295467"><ele>447.99999999999994</ele><time>2026-05-01T15:21:27.952Z</time></trkpt><trkpt lat="45.3730833" lon="7.829545"><ele>448.0</ele><time>2026-05-01T15:21:29.953Z</time></trkpt><trkpt lat="45.3731917" lon="7.8295317"><ele>448.0</ele><time>2026-05-01T15:21:31.952Z</time></trkpt><trkpt lat="45.3733133" lon="7.8295583"><ele>447.79999999999995</ele><time>2026-05-01T15:21:33.953Z</time></trkpt><trkpt lat="45.3733783" lon="7.8295633"><ele>447.59999999999997</ele><time>2026-05-01T15:21:34.952Z</time></trkpt><trkpt lat="45.373445" lon="7.829585"><ele>447.40000000000003</ele><time>2026-05-01T15:21:35.952Z</time></trkpt><trkpt lat="45.37352" lon="7.829605"><ele>447.20000000000005</ele><time>2026-05-01T15:21:36.953Z</time></trkpt><trkpt lat="45.3736367" lon="7.8296117"><ele>447.0</ele><time>2026-05-01T15:21:38.953Z</time></trkpt><trkpt lat="45.373875" lon="7.82965"><ele>446.6</ele><time>2026-05-01T15:21:42.952Z</time></trkpt><trkpt lat="45.3739733" lon="7.8296517"><ele>446.20000000000005</ele><time>2026-05-01T15:21:44.952Z</time></trkpt><trkpt lat="45.3740683" lon="7.8296267"><ele>445.8</ele><time>2026-05-01T15:21:46.953Z</time></trkpt><trkpt lat="45.3741817" lon="7.82959"><ele>445.4</ele><time>2026-05-01T15:21:48.952Z</time></trkpt><trkpt lat="45.374295" lon="7.8295833"><ele>445.0</ele><time>2026-05-01T15:21:50.952Z</time></trkpt><trkpt lat="45.37442" lon="7.8295933"><ele>445.0</ele><time>2026-05-01T15:21:52.953Z</time></trkpt><trkpt lat="45.3745467" lon="7.8295783"><ele>445.0</ele><time>2026-05-01T15:21:54.952Z</time></trkpt><trkpt lat="45.374675" lon="7.8295933"><ele>445.0</ele><time>2026-05-01T15:21:56.952Z</time></trkpt><trkpt lat="45.37474" lon="7.8296033"><ele>445.0</ele><time>2026-05-01T15:21:57.952Z</time></trkpt><trkpt lat="45.3748233" lon="7.8296133"><ele>445.0</ele><time>2026-05-01T15:21:58.952Z</time></trkpt><trkpt lat="45.3749133" lon="7.829605"><ele>444.8</ele><time>2026-05-01T15:21:59.953Z</time></trkpt><trkpt lat="45.3750617" lon="7.8295867"><ele>444.6</ele><time>2026-05-01T15:22:01.953Z</time></trkpt><trkpt lat="45.3751383" lon="7.8295917"><ele>444.4</ele><time>2026-05-01T15:22:02.952Z</time></trkpt><trkpt lat="45.3752133" lon="7.8296"><ele>444.2</ele><time>2026-05-01T15:22:03.953Z</time></trkpt><trkpt lat="45.3753283" lon="7.829605"><ele>444.0</ele><time>2026-05-01T15:22:05.953Z</time></trkpt><trkpt lat="45.3753967" lon="7.8296"><ele>444.0</ele><time>2026-05-01T15:22:06.954Z</time></trkpt><trkpt lat="45.37546" lon="7.8296167"><ele>444.0</ele><time>2026-05-01T15:22:07.954Z</time></trkpt><trkpt lat="45.3755233" lon="7.8296217"><ele>444.0</ele><time>2026-05-01T15:22:08.953Z</time></trkpt><trkpt lat="45.3755983" lon="7.829635"><ele>444.0</ele><time>2026-05-01T15:22:09.954Z</time></trkpt><trkpt lat="45.3756767" lon="7.8296567"><ele>444.0</ele><time>2026-05-01T15:22:10.953Z</time></trkpt><trkpt lat="45.3757917" lon="7.829655"><ele>444.0</ele><time>2026-05-01T15:22:12.954Z</time></trkpt><trkpt lat="45.375875" lon="7.8296317"><ele>443.6</ele><time>2026-05-01T15:22:14.953Z</time></trkpt><trkpt lat="45.3759517" lon="7.8295833"><ele>443.2</ele><time>2026-05-01T15:22:16.953Z</time></trkpt><trkpt lat="45.376015" lon="7.8295333"><ele>442.80000000000007</ele><time>2026-05-01T15:22:18.953Z</time></trkpt><trkpt lat="45.3760867" lon="7.8294917"><ele>442.40000000000003</ele><time>2026-05-01T15:22:20.953Z</time></trkpt><trkpt lat="45.37624" lon="7.8294533"><ele>442.0</ele><time>2026-05-01T15:22:24.953Z</time></trkpt><trkpt lat="45.3763217" lon="7.8294533"><ele>442.1666666666667</ele><time>2026-05-01T15:22:26.954Z</time></trkpt><trkpt lat="45.3764183" lon="7.82945"><ele>442.33333333333337</ele><time>2026-05-01T15:22:28.953Z</time></trkpt><trkpt lat="45.3765067" lon="7.8294217"><ele>442.5</ele><time>2026-05-01T15:22:30.954Z</time></trkpt><trkpt lat="45.37658" lon="7.8293917"><ele>442.66666666666663</ele><time>2026-05-01T15:22:32.954Z</time></trkpt><trkpt lat="45.3766633" lon="7.8293467"><ele>442.8333333333333</ele><time>2026-05-01T15:22:35.953Z</time></trkpt><trkpt lat="45.3767267" lon="7.8292967"><ele>443.0</ele><time>2026-05-01T15:22:37.953Z</time></trkpt><trkpt lat="45.37679" lon="7.8292817"><ele>443.0</ele><time>2026-05-01T15:22:39.953Z</time></trkpt><trkpt lat="45.3768733" lon="7.829315"><ele>442.99999999999994</ele><time>2026-05-01T15:22:42.953Z</time></trkpt><trkpt lat="45.377015" lon="7.8293633"><ele>442.99999999999994</ele><time>2026-05-01T15:22:48.954Z</time></trkpt><trkpt lat="45.377085" lon="7.82938"><ele>443.0</ele><time>2026-05-01T15:22:50.953Z</time></trkpt><trkpt lat="45.3771717" lon="7.82939"><ele>443.0</ele><time>2026-05-01T15:22:52.953Z</time></trkpt><trkpt lat="45.3772483" lon="7.829405"><ele>443.66666666666663</ele><time>2026-05-01T15:22:54.953Z</time></trkpt><trkpt lat="45.377335" lon="7.8294083"><ele>444.3333333333333</ele><time>2026-05-01T15:22:56.953Z</time></trkpt><trkpt lat="45.377395" lon="7.8293733"><ele>445.0</ele><time>2026-05-01T15:22:58.953Z</time></trkpt><trkpt lat="45.37746" lon="7.8293217"><ele>445.66666666666663</ele><time>2026-05-01T15:23:00.953Z</time></trkpt><trkpt lat="45.3775433" lon="7.8292617"><ele>446.3333333333333</ele><time>2026-05-01T15:23:02.953Z</time></trkpt><trkpt lat="45.377635" lon="7.82919"><ele>447.0</ele><time>2026-05-01T15:23:04.953Z</time></trkpt><trkpt lat="45.37779" lon="7.82905"><ele>447.1666666666667</ele><time>2026-05-01T15:23:07.953Z</time></trkpt><trkpt lat="45.3778917" lon="7.8289383"><ele>447.33333333333337</ele><time>2026-05-01T15:23:09.953Z</time></trkpt><trkpt lat="45.37794" lon="7.8288717"><ele>447.5</ele><time>2026-05-01T15:23:10.953Z</time></trkpt><trkpt lat="45.37799" lon="7.8287867"><ele>447.6666666666667</ele><time>2026-05-01T15:23:11.954Z</time></trkpt><trkpt lat="45.3780467" lon="7.828695"><ele>447.83333333333337</ele><time>2026-05-01T15:23:12.953Z</time></trkpt><trkpt lat="45.3780983" lon="7.8286017"><ele>448.0</ele><time>2026-05-01T15:23:13.954Z</time></trkpt><trkpt lat="45.37815" lon="7.8285067"><ele>449.33333333333337</ele><time>2026-05-01T15:23:14.954Z</time></trkpt><trkpt lat="45.378195" lon="7.8284317"><ele>450.6666666666667</ele><time>2026-05-01T15:23:15.953Z</time></trkpt><trkpt lat="45.3782333" lon="7.8283583"><ele>452.0</ele><time>2026-05-01T15:23:16.953Z</time></trkpt><trkpt lat="45.37832" lon="7.82828"><ele>453.33333333333337</ele><time>2026-05-01T15:23:18.953Z</time></trkpt><trkpt lat="45.3784" lon="7.8282783"><ele>454.6666666666667</ele><time>2026-05-01T15:23:20.953Z</time></trkpt><trkpt lat="45.3784817" lon="7.8283083"><ele>456.0</ele><time>2026-05-01T15:23:23.953Z</time></trkpt><trkpt lat="45.3785417" lon="7.8283533"><ele>454.0</ele><time>2026-05-01T15:23:27.953Z</time></trkpt><trkpt lat="45.3785133" lon="7.82865"><ele>452.0</ele><time>2026-05-01T15:23:32.953Z</time></trkpt><trkpt lat="45.3784883" lon="7.8287467"><ele>450.0</ele><time>2026-05-01T15:23:33.953Z</time></trkpt><trkpt lat="45.3784783" lon="7.8288367"><ele>448.0</ele><time>2026-05-01T15:23:34.953Z</time></trkpt><trkpt lat="45.3784517" lon="7.829005"><ele>448.0</ele><time>2026-05-01T15:23:36.953Z</time></trkpt><trkpt lat="45.3784317" lon="7.8291683"><ele>447.99999999999994</ele><time>2026-05-01T15:23:38.954Z</time></trkpt><trkpt lat="45.3783983" lon="7.8293333"><ele>447.99999999999994</ele><time>2026-05-01T15:23:40.953Z</time></trkpt><trkpt lat="45.3783667" lon="7.8294817"><ele>448.0</ele><time>2026-05-01T15:23:42.953Z</time></trkpt><trkpt lat="45.3783083" lon="7.8296033"><ele>448.0</ele><time>2026-05-01T15:23:44.953Z</time></trkpt><trkpt lat="45.3782433" lon="7.8297167"><ele>447.75</ele><time>2026-05-01T15:23:46.953Z</time></trkpt><trkpt lat="45.3781617" lon="7.8298083"><ele>447.5</ele><time>2026-05-01T15:23:48.953Z</time></trkpt><trkpt lat="45.3779417" lon="7.829945"><ele>447.25</ele><time>2026-05-01T15:23:52.954Z</time></trkpt><trkpt lat="45.3778783" lon="7.82997"><ele>447.0</ele><time>2026-05-01T15:23:53.953Z</time></trkpt><trkpt lat="45.37781" lon="7.8299983"><ele>447.0</ele><time>2026-05-01T15:23:54.953Z</time></trkpt><trkpt lat="45.3777417" lon="7.8300317"><ele>447.0</ele><time>2026-05-01T15:23:55.953Z</time></trkpt><trkpt lat="45.3776717" lon="7.8300733"><ele>447.0</ele><time>2026-05-01T15:23:56.953Z</time></trkpt><trkpt lat="45.377605" lon="7.8301217"><ele>447.0</ele><time>2026-05-01T15:23:57.953Z</time></trkpt><trkpt lat="45.377545" lon="7.8301633"><ele>447.0</ele><time>2026-05-01T15:23:58.953Z</time></trkpt><trkpt lat="45.3774383" lon="7.8302133"><ele>447.0</ele><time>2026-05-01T15:24:00.953Z</time></trkpt><trkpt lat="45.3773517" lon="7.830255"><ele>444.6</ele><time>2026-05-01T15:24:02.953Z</time></trkpt><trkpt lat="45.3773433" lon="7.8303517"><ele>442.20000000000005</ele><time>2026-05-01T15:24:10.954Z</time></trkpt><trkpt lat="45.3774633" lon="7.8305433"><ele>439.8</ele><time>2026-05-01T15:24:14.953Z</time></trkpt><trkpt lat="45.3775233" lon="7.8306383"><ele>437.4</ele><time>2026-05-01T15:24:16.953Z</time></trkpt><trkpt lat="45.37757" lon="7.8307283"><ele>435.0</ele><time>2026-05-01T15:24:18.953Z</time></trkpt><trkpt lat="45.3776233" lon="7.83079"><ele>435.0</ele><time>2026-05-01T15:24:20.953Z</time></trkpt><trkpt lat="45.3777133" lon="7.830825"><ele>435.0</ele><time>2026-05-01T15:24:23.953Z</time></trkpt><trkpt lat="45.37779" lon="7.83087"><ele>435.0</ele><time>2026-05-01T15:24:25.954Z</time></trkpt><trkpt lat="45.37786" lon="7.830935"><ele>435.0</ele><time>2026-05-01T15:24:27.953Z</time></trkpt><trkpt lat="45.3779333" lon="7.8309817"><ele>435.0</ele><time>2026-05-01T15:24:29.954Z</time></trkpt><trkpt lat="45.3780067" lon="7.8310067"><ele>435.0</ele><time>2026-05-01T15:24:31.953Z</time></trkpt><trkpt lat="45.3781783" lon="7.8310317"><ele>429.6</ele><time>2026-05-01T15:24:37.954Z</time></trkpt><trkpt lat="45.3782567" lon="7.8310333"><ele>424.2</ele><time>2026-05-01T15:24:40.954Z</time></trkpt><trkpt lat="45.37834" lon="7.8310567"><ele>418.79999999999995</ele><time>2026-05-01T15:24:43.953Z</time></trkpt><trkpt lat="45.37841" lon="7.83107"><ele>413.4</ele><time>2026-05-01T15:24:46.953Z</time></trkpt><trkpt lat="45.3785333" lon="7.8311083"><ele>408.0</ele><time>2026-05-01T15:33:17.954Z</time></trkpt><trkpt lat="45.3787417" lon="7.8311183"><ele>407.0</ele><time>2026-05-01T15:33:21.953Z</time></trkpt><trkpt lat="45.3788583" lon="7.8311167"><ele>406.0</ele><time>2026-05-01T15:33:23.953Z</time></trkpt><trkpt lat="45.37893" lon="7.83111"><ele>405.0</ele><time>2026-05-01T15:33:24.953Z</time></trkpt><trkpt lat="45.3789967" lon="7.831105"><ele>404.0</ele><time>2026-05-01T15:33:25.954Z</time></trkpt><trkpt lat="45.379105" lon="7.8310833"><ele>403.0</ele><time>2026-05-01T15:33:27.954Z</time></trkpt><trkpt lat="45.37918" lon="7.8310633"><ele>402.0</ele><time>2026-05-01T15:33:29.953Z</time></trkpt><trkpt lat="45.3791367" lon="7.8311483"><ele>402.0</ele><time>2026-05-01T15:33:35.953Z</time></trkpt><trkpt lat="45.3790583" lon="7.8312383"><ele>402.0</ele><time>2026-05-01T15:33:37.953Z</time></trkpt><trkpt lat="45.378975" lon="7.8313667"><ele>402.0</ele><time>2026-05-01T15:33:39.954Z</time></trkpt><trkpt lat="45.378925" lon="7.831425"><ele>402.0</ele><time>2026-05-01T15:33:40.953Z</time></trkpt><trkpt lat="45.37875" lon="7.8315517"><ele>403.20000000000005</ele><time>2026-05-01T15:33:43.953Z</time></trkpt><trkpt lat="45.3786267" lon="7.8315917"><ele>404.4</ele><time>2026-05-01T15:33:45.953Z</time></trkpt><trkpt lat="45.3785383" lon="7.8316033"><ele>405.6</ele><time>2026-05-01T15:33:46.953Z</time></trkpt><trkpt lat="45.3784517" lon="7.8316217"><ele>406.79999999999995</ele><time>2026-05-01T15:33:47.953Z</time></trkpt><trkpt lat="45.3783683" lon="7.8316533"><ele>408.0</ele><time>2026-05-01T15:33:48.953Z</time></trkpt><trkpt lat="45.3782817" lon="7.83168"><ele>408.0</ele><time>2026-05-01T15:33:49.953Z</time></trkpt><trkpt lat="45.3781983" lon="7.8316767"><ele>408.0</ele><time>2026-05-01T15:33:50.954Z</time></trkpt><trkpt lat="45.3781083" lon="7.8316817"><ele>408.0</ele><time>2026-05-01T15:33:51.953Z</time></trkpt><trkpt lat="45.3780267" lon="7.8316867"><ele>408.0</ele><time>2026-05-01T15:33:52.953Z</time></trkpt><trkpt lat="45.3779567" lon="7.83168"><ele>408.0</ele><time>2026-05-01T15:33:53.953Z</time></trkpt><trkpt lat="45.3778833" lon="7.8316783"><ele>408.0</ele><time>2026-05-01T15:33:54.953Z</time></trkpt><trkpt lat="45.3778133" lon="7.831695"><ele>408.8333333333333</ele><time>2026-05-01T15:33:55.953Z</time></trkpt><trkpt lat="45.3777517" lon="7.8317183"><ele>409.66666666666663</ele><time>2026-05-01T15:33:56.953Z</time></trkpt><trkpt lat="45.3776933" lon="7.83176"><ele>410.5</ele><time>2026-05-01T15:33:57.954Z</time></trkpt><trkpt lat="45.377615" lon="7.8318317"><ele>411.3333333333333</ele><time>2026-05-01T15:33:58.954Z</time></trkpt><trkpt lat="45.377545" lon="7.8318967"><ele>412.16666666666663</ele><time>2026-05-01T15:33:59.953Z</time></trkpt><trkpt lat="45.37745" lon="7.8319683"><ele>413.0</ele><time>2026-05-01T15:34:00.953Z</time></trkpt><trkpt lat="45.3773583" lon="7.8320233"><ele>408.0</ele><time>2026-05-01T15:34:01.954Z</time></trkpt><trkpt lat="45.3772633" lon="7.8320617"><ele>403.0</ele><time>2026-05-01T15:34:02.954Z</time></trkpt><trkpt lat="45.3770683" lon="7.83213"><ele>398.0</ele><time>2026-05-01T15:34:04.953Z</time></trkpt><trkpt lat="45.3769767" lon="7.832155"><ele>393.0</ele><time>2026-05-01T15:34:05.953Z</time></trkpt><trkpt lat="45.37689" lon="7.832185"><ele>393.0</ele><time>2026-05-01T15:34:06.954Z</time></trkpt><trkpt lat="45.3768133" lon="7.8322233"><ele>393.0</ele><time>2026-05-01T15:34:07.953Z</time></trkpt><trkpt lat="45.3767333" lon="7.8322683"><ele>393.0</ele><time>2026-05-01T15:34:08.953Z</time></trkpt><trkpt lat="45.3766567" lon="7.8323017"><ele>393.0</ele><time>2026-05-01T15:34:09.954Z</time></trkpt><trkpt lat="45.3765933" lon="7.8323317"><ele>393.0</ele><time>2026-05-01T15:34:10.953Z</time></trkpt><trkpt lat="45.3765017" lon="7.8323833"><ele>393.0</ele><time>2026-05-01T15:34:12.953Z</time></trkpt><trkpt lat="45.3764317" lon="7.8324117"><ele>393.0</ele><time>2026-05-01T15:34:15.953Z</time></trkpt><trkpt lat="45.3763717" lon="7.8324633"><ele>393.0</ele><time>2026-05-01T15:34:58.955Z</time></trkpt><trkpt lat="45.3762667" lon="7.8326117"><ele>393.0</ele><time>2026-05-01T15:35:02.954Z</time></trkpt><trkpt lat="45.376305" lon="7.8326967"><ele>393.0</ele><time>2026-05-01T15:35:04.954Z</time></trkpt><trkpt lat="45.3763733" lon="7.8327467"><ele>393.0</ele><time>2026-05-01T15:35:05.954Z</time></trkpt><trkpt lat="45.37647" lon="7.8328183"><ele>390.8333333333333</ele><time>2026-05-01T15:35:06.955Z</time></trkpt><trkpt lat="45.3765683" lon="7.8328917"><ele>388.6666666666667</ele><time>2026-05-01T15:35:07.955Z</time></trkpt><trkpt lat="45.3766583" lon="7.832955"><ele>386.5</ele><time>2026-05-01T15:35:08.954Z</time></trkpt><trkpt lat="45.376725" lon="7.83301"><ele>384.33333333333337</ele><time>2026-05-01T15:35:09.954Z</time></trkpt><trkpt lat="45.3767767" lon="7.8330617"><ele>382.1666666666667</ele><time>2026-05-01T15:35:10.954Z</time></trkpt><trkpt lat="45.3768567" lon="7.8331417"><ele>380.0</ele><time>2026-05-01T15:35:12.955Z</time></trkpt><trkpt lat="45.3769567" lon="7.8331917"><ele>380.0</ele><time>2026-05-01T15:35:14.954Z</time></trkpt><trkpt lat="45.3770067" lon="7.833305"><ele>380.0</ele><time>2026-05-01T15:35:16.954Z</time></trkpt><trkpt lat="45.3770167" lon="7.8334933"><ele>380.0</ele><time>2026-05-01T15:35:18.954Z</time></trkpt><trkpt lat="45.377035" lon="7.8335867"><ele>380.0</ele><time>2026-05-01T15:35:19.955Z</time></trkpt><trkpt lat="45.3770967" lon="7.8338233"><ele>378.6</ele><time>2026-05-01T15:35:22.954Z</time></trkpt><trkpt lat="45.3771583" lon="7.8338833"><ele>377.2</ele><time>2026-05-01T15:35:24.955Z</time></trkpt><trkpt lat="45.3772417" lon="7.8338633"><ele>375.79999999999995</ele><time>2026-05-01T15:35:26.955Z</time></trkpt><trkpt lat="45.3773617" lon="7.833835"><ele>374.4</ele><time>2026-05-01T15:35:28.954Z</time></trkpt><trkpt lat="45.3774717" lon="7.8337983"><ele>373.0</ele><time>2026-05-01T15:35:30.954Z</time></trkpt><trkpt lat="45.377585" lon="7.8337667"><ele>372.75</ele><time>2026-05-01T15:35:32.955Z</time></trkpt><trkpt lat="45.3777083" lon="7.83374"><ele>372.5</ele><time>2026-05-01T15:35:34.954Z</time></trkpt><trkpt lat="45.37783" lon="7.8337317"><ele>372.25</ele><time>2026-05-01T15:35:36.954Z</time></trkpt><trkpt lat="45.3779367" lon="7.8337083"><ele>372.0</ele><time>2026-05-01T15:35:38.954Z</time></trkpt><trkpt lat="45.3780683" lon="7.8337233"><ele>371.5</ele><time>2026-05-01T15:35:41.954Z</time></trkpt><trkpt lat="45.3781667" lon="7.8339017"><ele>371.0</ele><time>2026-05-01T15:35:45.954Z</time></trkpt><trkpt lat="45.3782183" lon="7.8339533"><ele>370.5</ele><time>2026-05-01T15:35:47.954Z</time></trkpt><trkpt lat="45.378285" lon="7.8339633"><ele>370.0</ele><time>2026-05-01T15:35:49.955Z</time></trkpt><trkpt lat="45.37836" lon="7.8339583"><ele>369.5</ele><time>2026-05-01T15:35:51.955Z</time></trkpt><trkpt lat="45.378435" lon="7.8339483"><ele>369.0</ele><time>2026-05-01T15:35:53.954Z</time></trkpt><trkpt lat="45.3785217" lon="7.83394"><ele>369.0</ele><time>2026-05-01T15:35:55.954Z</time></trkpt><trkpt lat="45.3786133" lon="7.8339317"><ele>369.0</ele><time>2026-05-01T15:35:57.954Z</time></trkpt><trkpt lat="45.37871" lon="7.8339383"><ele>369.0</ele><time>2026-05-01T15:35:59.954Z</time></trkpt><trkpt lat="45.378845" lon="7.83396"><ele>369.0</ele><time>2026-05-01T15:36:02.954Z</time></trkpt><trkpt lat="45.3789267" lon="7.83399"><ele>369.0</ele><time>2026-05-01T15:36:04.955Z</time></trkpt><trkpt lat="45.379125" lon="7.8340167"><ele>369.25</ele><time>2026-05-01T15:36:08.955Z</time></trkpt><trkpt lat="45.37924" lon="7.8339917"><ele>369.5</ele><time>2026-05-01T15:36:10.955Z</time></trkpt><trkpt lat="45.3793567" lon="7.8339633"><ele>369.75</ele><time>2026-05-01T15:36:12.955Z</time></trkpt><trkpt lat="45.3794733" lon="7.8339367"><ele>370.0</ele><time>2026-05-01T15:36:14.955Z</time></trkpt><trkpt lat="45.37959" lon="7.8338867"><ele>370.0</ele><time>2026-05-01T15:36:16.954Z</time></trkpt><trkpt lat="45.37965" lon="7.8338483"><ele>370.0</ele><time>2026-05-01T15:36:17.955Z</time></trkpt><trkpt lat="45.3797617" lon="7.8338"><ele>370.0</ele><time>2026-05-01T15:36:19.955Z</time></trkpt><trkpt lat="45.379855" lon="7.8338383"><ele>370.0</ele><time>2026-05-01T15:36:21.955Z</time></trkpt><trkpt lat="45.3799017" lon="7.8339483"><ele>370.0</ele><time>2026-05-01T15:36:23.954Z</time></trkpt><trkpt lat="45.3799283" lon="7.8341117"><ele>370.3333333333333</ele><time>2026-05-01T15:36:25.955Z</time></trkpt><trkpt lat="45.3799783" lon="7.834265"><ele>370.6666666666667</ele><time>2026-05-01T15:36:27.954Z</time></trkpt><trkpt lat="45.3801567" lon="7.83447"><ele>371.0</ele><time>2026-05-01T15:36:31.954Z</time></trkpt><trkpt lat="45.3802817" lon="7.834465"><ele>371.0</ele><time>2026-05-01T15:36:33.954Z</time></trkpt><trkpt lat="45.3803533" lon="7.834435"><ele>371.0</ele><time>2026-05-01T15:36:34.954Z</time></trkpt><trkpt lat="45.380425" lon="7.8344033"><ele>371.0</ele><time>2026-05-01T15:36:35.955Z</time></trkpt><trkpt lat="45.3805" lon="7.8343683"><ele>371.0</ele><time>2026-05-01T15:36:36.954Z</time></trkpt><trkpt lat="45.3805767" lon="7.83433"><ele>371.0</ele><time>2026-05-01T15:36:37.954Z</time></trkpt><trkpt lat="45.3806467" lon="7.8342983"><ele>371.0</ele><time>2026-05-01T15:36:38.955Z</time></trkpt><trkpt lat="45.380715" lon="7.83427"><ele>372.1666666666667</ele><time>2026-05-01T15:36:39.954Z</time></trkpt><trkpt lat="45.380785" lon="7.8342383"><ele>373.33333333333337</ele><time>2026-05-01T15:36:40.954Z</time></trkpt><trkpt lat="45.3808667" lon="7.8342133"><ele>374.5</ele><time>2026-05-01T15:36:41.954Z</time></trkpt><trkpt lat="45.38095" lon="7.834175"><ele>375.6666666666667</ele><time>2026-05-01T15:36:42.954Z</time></trkpt><trkpt lat="45.381025" lon="7.8341433"><ele>376.8333333333333</ele><time>2026-05-01T15:36:43.954Z</time></trkpt><trkpt lat="45.381115" lon="7.8340883"><ele>378.0</ele><time>2026-05-01T15:36:44.954Z</time></trkpt><trkpt lat="45.381215" lon="7.8340467"><ele>377.25</ele><time>2026-05-01T15:36:45.954Z</time></trkpt><trkpt lat="45.381415" lon="7.833945"><ele>376.5</ele><time>2026-05-01T15:36:47.954Z</time></trkpt><trkpt lat="45.3815083" lon="7.8339"><ele>375.75</ele><time>2026-05-01T15:36:48.955Z</time></trkpt><trkpt lat="45.38161" lon="7.83385"><ele>375.0</ele><time>2026-05-01T15:36:49.954Z</time></trkpt><trkpt lat="45.3817217" lon="7.833805"><ele>375.0</ele><time>2026-05-01T15:36:50.954Z</time></trkpt><trkpt lat="45.3819217" lon="7.8337283"><ele>375.0</ele><time>2026-05-01T15:36:52.955Z</time></trkpt><trkpt lat="45.3820233" lon="7.8336983"><ele>375.0</ele><time>2026-05-01T15:36:53.955Z</time></trkpt><trkpt lat="45.3821233" lon="7.8336633"><ele>375.0</ele><time>2026-05-01T15:36:54.954Z</time></trkpt><trkpt lat="45.382215" lon="7.8336233"><ele>373.4</ele><time>2026-05-01T15:36:55.954Z</time></trkpt><trkpt lat="45.3823067" lon="7.8335767"><ele>371.8</ele><time>2026-05-01T15:36:56.955Z</time></trkpt><trkpt lat="45.3823983" lon="7.833525"><ele>370.20000000000005</ele><time>2026-05-01T15:36:57.954Z</time></trkpt><trkpt lat="45.3824917" lon="7.8334667"><ele>368.6</ele><time>2026-05-01T15:36:58.954Z</time></trkpt><trkpt lat="45.3825883" lon="7.8334217"><ele>367.0</ele><time>2026-05-01T15:36:59.954Z</time></trkpt><trkpt lat="45.382685" lon="7.8333817"><ele>369.5</ele><time>2026-05-01T15:37:00.954Z</time></trkpt><trkpt lat="45.3827767" lon="7.833345"><ele>372.0</ele><time>2026-05-01T15:37:01.954Z</time></trkpt><trkpt lat="45.3828617" lon="7.8333083"><ele>374.5</ele><time>2026-05-01T15:37:02.954Z</time></trkpt><trkpt lat="45.38295" lon="7.833275"><ele>377.0</ele><time>2026-05-01T15:37:03.954Z</time></trkpt><trkpt lat="45.3830333" lon="7.8332533"><ele>379.5</ele><time>2026-05-01T15:37:04.954Z</time></trkpt><trkpt lat="45.3831183" lon="7.833235"><ele>382.0</ele><time>2026-05-01T15:37:05.954Z</time></trkpt><trkpt lat="45.3831867" lon="7.8332033"><ele>382.0</ele><time>2026-05-01T15:37:06.954Z</time></trkpt><trkpt lat="45.3832667" lon="7.8331567"><ele>382.0</ele><time>2026-05-01T15:37:07.954Z</time></trkpt><trkpt lat="45.3833483" lon="7.8331133"><ele>382.0</ele><time>2026-05-01T15:37:08.955Z</time></trkpt><trkpt lat="45.3834317" lon="7.8330633"><ele>382.0</ele><time>2026-05-01T15:37:09.954Z</time></trkpt><trkpt lat="45.38351" lon="7.8330183"><ele>382.0</ele><time>2026-05-01T15:37:10.955Z</time></trkpt><trkpt lat="45.3835817" lon="7.8329783"><ele>382.0</ele><time>2026-05-01T15:37:11.954Z</time></trkpt><trkpt lat="45.3836567" lon="7.8329467"><ele>382.0</ele><time>2026-05-01T15:37:12.954Z</time></trkpt><trkpt lat="45.3838017" lon="7.832875"><ele>382.0</ele><time>2026-05-01T15:37:14.954Z</time></trkpt><trkpt lat="45.38387" lon="7.83283"><ele>382.0</ele><time>2026-05-01T15:37:15.954Z</time></trkpt><trkpt lat="45.3839317" lon="7.83279"><ele>382.0</ele><time>2026-05-01T15:37:16.954Z</time></trkpt><trkpt lat="45.3840933" lon="7.8326083"><ele>384.5</ele><time>2026-05-01T15:37:18.954Z</time></trkpt><trkpt lat="45.384165" lon="7.8325183"><ele>387.0</ele><time>2026-05-01T15:37:19.954Z</time></trkpt><trkpt lat="45.38423" lon="7.83243"><ele>389.5</ele><time>2026-05-01T15:37:20.954Z</time></trkpt><trkpt lat="45.38429" lon="7.8323433"><ele>392.0</ele><time>2026-05-01T15:37:21.955Z</time></trkpt><trkpt lat="45.3843467" lon="7.8322767"><ele>394.50000000000006</ele><time>2026-05-01T15:37:22.954Z</time></trkpt><trkpt lat="45.3844017" lon="7.832205"><ele>397.0</ele><time>2026-05-01T15:37:23.954Z</time></trkpt><trkpt lat="45.384465" lon="7.8321317"><ele>397.00000000000006</ele><time>2026-05-01T15:37:24.955Z</time></trkpt><trkpt lat="45.3845317" lon="7.8320583"><ele>397.0</ele><time>2026-05-01T15:37:25.954Z</time></trkpt><trkpt lat="45.3845917" lon="7.8319867"><ele>397.0</ele><time>2026-05-01T15:37:26.954Z</time></trkpt><trkpt lat="45.384645" lon="7.8319333"><ele>397.0</ele><time>2026-05-01T15:37:27.954Z</time></trkpt><trkpt lat="45.3846983" lon="7.8318833"><ele>397.00000000000006</ele><time>2026-05-01T15:37:28.954Z</time></trkpt><trkpt lat="45.3847567" lon="7.831835"><ele>397.0</ele><time>2026-05-01T15:37:29.954Z</time></trkpt><trkpt lat="45.3848883" lon="7.83176"><ele>397.5</ele><time>2026-05-01T15:37:31.954Z</time></trkpt><trkpt lat="45.3850133" lon="7.8316617"><ele>398.0</ele><time>2026-05-01T15:37:33.954Z</time></trkpt><trkpt lat="45.38508" lon="7.83159"><ele>398.5</ele><time>2026-05-01T15:37:34.954Z</time></trkpt><trkpt lat="45.3851567" lon="7.83151"><ele>399.0</ele><time>2026-05-01T15:37:35.954Z</time></trkpt><trkpt lat="45.3853117" lon="7.8313583"><ele>399.0</ele><time>2026-05-01T15:37:37.954Z</time></trkpt><trkpt lat="45.38539" lon="7.8312667"><ele>399.0</ele><time>2026-05-01T15:37:38.954Z</time></trkpt><trkpt lat="45.385455" lon="7.83118"><ele>399.0</ele><time>2026-05-01T15:37:39.954Z</time></trkpt><trkpt lat="45.385525" lon="7.8310983"><ele>399.0</ele><time>2026-05-01T15:37:40.954Z</time></trkpt><trkpt lat="45.385585" lon="7.8310083"><ele>399.0</ele><time>2026-05-01T15:37:41.954Z</time></trkpt><trkpt lat="45.3856967" lon="7.8308267"><ele>399.8333333333333</ele><time>2026-05-01T15:37:43.955Z</time></trkpt><trkpt lat="45.3857583" lon="7.830755"><ele>400.66666666666663</ele><time>2026-05-01T15:37:44.954Z</time></trkpt><trkpt lat="45.385815" lon="7.830675"><ele>401.5</ele><time>2026-05-01T15:37:45.955Z</time></trkpt><trkpt lat="45.3858683" lon="7.8305833"><ele>402.3333333333333</ele><time>2026-05-01T15:37:46.954Z</time></trkpt><trkpt lat="45.3859167" lon="7.8304883"><ele>403.16666666666663</ele><time>2026-05-01T15:37:47.954Z</time></trkpt><trkpt lat="45.3859667" lon="7.8304"><ele>404.0</ele><time>2026-05-01T15:37:48.954Z</time></trkpt><trkpt lat="45.3860183" lon="7.8303167"><ele>404.0</ele><time>2026-05-01T15:37:49.955Z</time></trkpt><trkpt lat="45.3860667" lon="7.8302433"><ele>404.0</ele><time>2026-05-01T15:37:50.954Z</time></trkpt><trkpt lat="45.3861167" lon="7.830175"><ele>404.0</ele><time>2026-05-01T15:37:51.954Z</time></trkpt><trkpt lat="45.386165" lon="7.8301033"><ele>404.0</ele><time>2026-05-01T15:37:52.954Z</time></trkpt><trkpt lat="45.3862733" lon="7.82995"><ele>404.0</ele><time>2026-05-01T15:37:54.954Z</time></trkpt><trkpt lat="45.3863517" lon="7.8298233"><ele>403.25</ele><time>2026-05-01T15:37:56.954Z</time></trkpt><trkpt lat="45.3864017" lon="7.8297633"><ele>402.5</ele><time>2026-05-01T15:37:57.954Z</time></trkpt><trkpt lat="45.386585" lon="7.82959"><ele>401.75</ele><time>2026-05-01T15:38:01.954Z</time></trkpt><trkpt lat="45.386655" lon="7.8295067"><ele>401.0</ele><time>2026-05-01T15:38:03.954Z</time></trkpt><trkpt lat="45.386715" lon="7.8294283"><ele>401.0</ele><time>2026-05-01T15:38:05.954Z</time></trkpt><trkpt lat="45.386755" lon="7.8293267"><ele>401.0</ele><time>2026-05-01T15:38:07.954Z</time></trkpt><trkpt lat="45.38679" lon="7.829215"><ele>401.0</ele><time>2026-05-01T15:38:09.954Z</time></trkpt><trkpt lat="45.3868283" lon="7.82909"><ele>401.0</ele><time>2026-05-01T15:38:11.954Z</time></trkpt><trkpt lat="45.3868717" lon="7.8289567"><ele>401.0</ele><time>2026-05-01T15:38:13.955Z</time></trkpt><trkpt lat="45.386925" lon="7.8288167"><ele>400.25</ele><time>2026-05-01T15:38:15.955Z</time></trkpt><trkpt lat="45.3869917" lon="7.8286667"><ele>399.5</ele><time>2026-05-01T15:38:17.954Z</time></trkpt><trkpt lat="45.387045" lon="7.8285217"><ele>398.75</ele><time>2026-05-01T15:38:19.954Z</time></trkpt><trkpt lat="45.3871017" lon="7.8284183"><ele>398.0</ele><time>2026-05-01T15:38:21.954Z</time></trkpt><trkpt lat="45.38721" lon="7.8282317"><ele>397.5</ele><time>2026-05-01T15:38:25.954Z</time></trkpt><trkpt lat="45.3872783" lon="7.8281433"><ele>397.0</ele><time>2026-05-01T15:38:28.954Z</time></trkpt><trkpt lat="45.38739" lon="7.8280067"><ele>396.5</ele><time>2026-05-01T15:39:35.954Z</time></trkpt><trkpt lat="45.38752" lon="7.827915"><ele>396.0</ele><time>2026-05-01T15:39:37.955Z</time></trkpt><trkpt lat="45.3876" lon="7.8278617"><ele>396.0</ele><time>2026-05-01T15:39:38.954Z</time></trkpt><trkpt lat="45.3876767" lon="7.82782"><ele>396.0</ele><time>2026-05-01T15:39:39.954Z</time></trkpt><trkpt lat="45.387755" lon="7.8277783"><ele>396.0</ele><time>2026-05-01T15:39:40.954Z</time></trkpt><trkpt lat="45.3878283" lon="7.8277183"><ele>396.0</ele><time>2026-05-01T15:39:41.954Z</time></trkpt><trkpt lat="45.3878983" lon="7.82768"><ele>396.0</ele><time>2026-05-01T15:39:42.955Z</time></trkpt><trkpt lat="45.3879733" lon="7.82766"><ele>396.0</ele><time>2026-05-01T15:39:43.955Z</time></trkpt><trkpt lat="45.3880567" lon="7.8276517"><ele>396.20000000000005</ele><time>2026-05-01T15:39:44.954Z</time></trkpt><trkpt lat="45.3881433" lon="7.82764"><ele>396.40000000000003</ele><time>2026-05-01T15:39:45.954Z</time></trkpt><trkpt lat="45.388235" lon="7.8276117"><ele>396.6</ele><time>2026-05-01T15:39:46.954Z</time></trkpt><trkpt lat="45.3883283" lon="7.8275967"><ele>396.8</ele><time>2026-05-01T15:39:47.954Z</time></trkpt><trkpt lat="45.388425" lon="7.8275733"><ele>397.0</ele><time>2026-05-01T15:39:48.954Z</time></trkpt><trkpt lat="45.388525" lon="7.8275467"><ele>397.00000000000006</ele><time>2026-05-01T15:39:49.954Z</time></trkpt><trkpt lat="45.3886183" lon="7.8275317"><ele>397.0</ele><time>2026-05-01T15:39:50.954Z</time></trkpt><trkpt lat="45.3886967" lon="7.8275217"><ele>397.0</ele><time>2026-05-01T15:39:51.954Z</time></trkpt><trkpt lat="45.38877" lon="7.827515"><ele>397.0</ele><time>2026-05-01T15:39:52.955Z</time></trkpt><trkpt lat="45.3888417" lon="7.82751"><ele>397.00000000000006</ele><time>2026-05-01T15:39:53.955Z</time></trkpt><trkpt lat="45.388915" lon="7.8274917"><ele>397.0</ele><time>2026-05-01T15:39:54.954Z</time></trkpt><trkpt lat="45.3889983" lon="7.8274733"><ele>396.40000000000003</ele><time>2026-05-01T15:39:55.954Z</time></trkpt><trkpt lat="45.3890767" lon="7.8274417"><ele>395.8</ele><time>2026-05-01T15:39:56.955Z</time></trkpt><trkpt lat="45.38924" lon="7.8273533"><ele>395.2</ele><time>2026-05-01T15:39:58.954Z</time></trkpt><trkpt lat="45.389325" lon="7.8273017"><ele>394.6</ele><time>2026-05-01T15:39:59.954Z</time></trkpt><trkpt lat="45.3894133" lon="7.8272517"><ele>394.0</ele><time>2026-05-01T15:40:00.954Z</time></trkpt><trkpt lat="45.3895067" lon="7.8272033"><ele>394.0</ele><time>2026-05-01T15:40:01.954Z</time></trkpt><trkpt lat="45.3895983" lon="7.8271567"><ele>394.0</ele><time>2026-05-01T15:40:02.954Z</time></trkpt><trkpt lat="45.3896883" lon="7.8271117"><ele>394.0</ele><time>2026-05-01T15:40:03.954Z</time></trkpt><trkpt lat="45.3897783" lon="7.8270833"><ele>394.0</ele><time>2026-05-01T15:40:04.954Z</time></trkpt><trkpt lat="45.3898617" lon="7.82704"><ele>394.0</ele><time>2026-05-01T15:40:05.954Z</time></trkpt><trkpt lat="45.38995" lon="7.8270083"><ele>394.79999999999995</ele><time>2026-05-01T15:40:06.954Z</time></trkpt><trkpt lat="45.3900317" lon="7.8269833"><ele>395.59999999999997</ele><time>2026-05-01T15:40:07.954Z</time></trkpt><trkpt lat="45.3901017" lon="7.8269617"><ele>396.4</ele><time>2026-05-01T15:40:08.954Z</time></trkpt><trkpt lat="45.3902217" lon="7.82688"><ele>397.2</ele><time>2026-05-01T15:40:10.954Z</time></trkpt><trkpt lat="45.3902883" lon="7.8267933"><ele>398.0</ele><time>2026-05-01T15:40:11.955Z</time></trkpt><trkpt lat="45.390345" lon="7.8267233"><ele>397.99999999999994</ele><time>2026-05-01T15:40:12.954Z</time></trkpt><trkpt lat="45.39041" lon="7.8266433"><ele>398.0</ele><time>2026-05-01T15:40:13.954Z</time></trkpt><trkpt lat="45.39047" lon="7.82657"><ele>398.0</ele><time>2026-05-01T15:40:14.955Z</time></trkpt><trkpt lat="45.390545" lon="7.8264917"><ele>398.0</ele><time>2026-05-01T15:40:15.954Z</time></trkpt><trkpt lat="45.3906183" lon="7.8264017"><ele>397.99999999999994</ele><time>2026-05-01T15:40:16.955Z</time></trkpt><trkpt lat="45.3906933" lon="7.826335"><ele>398.0</ele><time>2026-05-01T15:40:17.954Z</time></trkpt><trkpt lat="45.39082" lon="7.8261967"><ele>398.4</ele><time>2026-05-01T15:40:19.954Z</time></trkpt><trkpt lat="45.3908783" lon="7.8260917"><ele>398.79999999999995</ele><time>2026-05-01T15:40:20.954Z</time></trkpt><trkpt lat="45.390925" lon="7.8259817"><ele>399.2</ele><time>2026-05-01T15:40:21.954Z</time></trkpt><trkpt lat="45.3909783" lon="7.8258633"><ele>399.6</ele><time>2026-05-01T15:40:22.955Z</time></trkpt><trkpt lat="45.3910317" lon="7.8257317"><ele>400.0</ele><time>2026-05-01T15:40:23.955Z</time></trkpt><trkpt lat="45.3910783" lon="7.8256017"><ele>400.0</ele><time>2026-05-01T15:40:24.954Z</time></trkpt><trkpt lat="45.3911233" lon="7.8254633"><ele>400.0</ele><time>2026-05-01T15:40:25.954Z</time></trkpt><trkpt lat="45.39117" lon="7.825315"><ele>400.0</ele><time>2026-05-01T15:40:26.954Z</time></trkpt><trkpt lat="45.3911983" lon="7.8251683"><ele>400.0</ele><time>2026-05-01T15:40:27.955Z</time></trkpt><trkpt lat="45.391245" lon="7.8250233"><ele>400.0</ele><time>2026-05-01T15:40:28.955Z</time></trkpt><trkpt lat="45.3912867" lon="7.8248817"><ele>398.8</ele><time>2026-05-01T15:40:29.954Z</time></trkpt><trkpt lat="45.3913267" lon="7.8247383"><ele>397.6</ele><time>2026-05-01T15:40:30.954Z</time></trkpt><trkpt lat="45.39138" lon="7.8246017"><ele>396.4</ele><time>2026-05-01T15:40:31.954Z</time></trkpt><trkpt lat="45.3914117" lon="7.8244767"><ele>395.2</ele><time>2026-05-01T15:40:32.955Z</time></trkpt><trkpt lat="45.391435" lon="7.8243633"><ele>394.0</ele><time>2026-05-01T15:40:33.954Z</time></trkpt><trkpt lat="45.3914583" lon="7.824255"><ele>394.0</ele><time>2026-05-01T15:40:34.954Z</time></trkpt><trkpt lat="45.3914883" lon="7.824165"><ele>394.0</ele><time>2026-05-01T15:40:35.954Z</time></trkpt><trkpt lat="45.3915233" lon="7.8240833"><ele>394.0</ele><time>2026-05-01T15:40:36.954Z</time></trkpt><trkpt lat="45.39159" lon="7.823975"><ele>394.0</ele><time>2026-05-01T15:40:38.955Z</time></trkpt><trkpt lat="45.3917167" lon="7.8238783"><ele>394.0</ele><time>2026-05-01T15:40:42.954Z</time></trkpt><trkpt lat="45.3917467" lon="7.82374"><ele>394.00000000000006</ele><time>2026-05-01T15:40:44.954Z</time></trkpt><trkpt lat="45.39176" lon="7.823635"><ele>394.0</ele><time>2026-05-01T15:40:45.955Z</time></trkpt><trkpt lat="45.39177" lon="7.8235067"><ele>394.0</ele><time>2026-05-01T15:40:46.954Z</time></trkpt><trkpt lat="45.3917683" lon="7.8233867"><ele>394.0</ele><time>2026-05-01T15:40:47.955Z</time></trkpt><trkpt lat="45.391765" lon="7.8232667"><ele>394.00000000000006</ele><time>2026-05-01T15:40:48.954Z</time></trkpt><trkpt lat="45.3917617" lon="7.8231467"><ele>394.0</ele><time>2026-05-01T15:40:49.955Z</time></trkpt><trkpt lat="45.3917533" lon="7.8230333"><ele>394.33333333333337</ele><time>2026-05-01T15:40:50.955Z</time></trkpt><trkpt lat="45.39175" lon="7.8229317"><ele>394.6666666666667</ele><time>2026-05-01T15:40:51.954Z</time></trkpt><trkpt lat="45.391755" lon="7.8228367"><ele>395.0</ele><time>2026-05-01T15:40:52.954Z</time></trkpt><trkpt lat="45.3917567" lon="7.8227317"><ele>395.33333333333337</ele><time>2026-05-01T15:40:53.954Z</time></trkpt><trkpt lat="45.3917667" lon="7.82261"><ele>395.6666666666667</ele><time>2026-05-01T15:40:54.954Z</time></trkpt><trkpt lat="45.39176" lon="7.8224817"><ele>396.0</ele><time>2026-05-01T15:40:55.954Z</time></trkpt><trkpt lat="45.391755" lon="7.8223483"><ele>396.6</ele><time>2026-05-01T15:40:56.954Z</time></trkpt><trkpt lat="45.3917533" lon="7.8222283"><ele>397.20000000000005</ele><time>2026-05-01T15:40:57.954Z</time></trkpt><trkpt lat="45.3917517" lon="7.8221133"><ele>397.79999999999995</ele><time>2026-05-01T15:40:58.954Z</time></trkpt><trkpt lat="45.3917533" lon="7.82199"><ele>398.4</ele><time>2026-05-01T15:40:59.955Z</time></trkpt><trkpt lat="45.391755" lon="7.821715"><ele>399.0</ele><time>2026-05-01T15:41:01.954Z</time></trkpt><trkpt lat="45.3917617" lon="7.82157"><ele>399.3333333333333</ele><time>2026-05-01T15:41:02.955Z</time></trkpt><trkpt lat="45.3917767" lon="7.8214417"><ele>399.66666666666663</ele><time>2026-05-01T15:41:03.955Z</time></trkpt><trkpt lat="45.3917983" lon="7.8213217"><ele>400.0</ele><time>2026-05-01T15:41:04.954Z</time></trkpt><trkpt lat="45.3918267" lon="7.8212017"><ele>400.3333333333333</ele><time>2026-05-01T15:41:05.954Z</time></trkpt><trkpt lat="45.39186" lon="7.8210917"><ele>400.66666666666663</ele><time>2026-05-01T15:41:06.954Z</time></trkpt><trkpt lat="45.391895" lon="7.820995"><ele>401.0</ele><time>2026-05-01T15:41:07.954Z</time></trkpt><trkpt lat="45.3919333" lon="7.8209083"><ele>401.8333333333333</ele><time>2026-05-01T15:41:08.954Z</time></trkpt><trkpt lat="45.39197" lon="7.82083"><ele>402.66666666666663</ele><time>2026-05-01T15:41:09.954Z</time></trkpt><trkpt lat="45.392005" lon="7.8207533"><ele>403.5</ele><time>2026-05-01T15:41:10.954Z</time></trkpt><trkpt lat="45.39205" lon="7.8206883"><ele>404.33333333333337</ele><time>2026-05-01T15:41:11.954Z</time></trkpt><trkpt lat="45.3921467" lon="7.8205667"><ele>405.1666666666667</ele><time>2026-05-01T15:41:13.955Z</time></trkpt><trkpt lat="45.3922117" lon="7.8205133"><ele>406.0</ele><time>2026-05-01T15:41:14.955Z</time></trkpt><trkpt lat="45.3922833" lon="7.820465"><ele>404.0</ele><time>2026-05-01T15:41:15.954Z</time></trkpt><trkpt lat="45.3923433" lon="7.8204167"><ele>402.0</ele><time>2026-05-01T15:41:16.954Z</time></trkpt><trkpt lat="45.3924467" lon="7.8203333"><ele>400.0</ele><time>2026-05-01T15:41:18.955Z</time></trkpt><trkpt lat="45.392545" lon="7.8202417"><ele>398.0</ele><time>2026-05-01T15:41:20.954Z</time></trkpt><trkpt lat="45.3927433" lon="7.820085"><ele>397.99999999999994</ele><time>2026-05-01T15:41:24.954Z</time></trkpt><trkpt lat="45.3928617" lon="7.8200233"><ele>398.0</ele><time>2026-05-01T15:41:26.955Z</time></trkpt><trkpt lat="45.3929433" lon="7.819985"><ele>398.0</ele><time>2026-05-01T15:41:27.954Z</time></trkpt><trkpt lat="45.3930183" lon="7.8199417"><ele>398.0</ele><time>2026-05-01T15:41:28.954Z</time></trkpt><trkpt lat="45.393085" lon="7.81989"><ele>397.99999999999994</ele><time>2026-05-01T15:41:29.954Z</time></trkpt><trkpt lat="45.3931517" lon="7.81983"><ele>398.0</ele><time>2026-05-01T15:41:30.955Z</time></trkpt><trkpt lat="45.3932183" lon="7.81975"><ele>396.99999999999994</ele><time>2026-05-01T15:41:31.954Z</time></trkpt><trkpt lat="45.3932767" lon="7.819675"><ele>396.0</ele><time>2026-05-01T15:41:32.954Z</time></trkpt><trkpt lat="45.393335" lon="7.819595"><ele>395.0</ele><time>2026-05-01T15:41:33.955Z</time></trkpt><trkpt lat="45.3933867" lon="7.8195167"><ele>394.0</ele><time>2026-05-01T15:41:34.954Z</time></trkpt><trkpt lat="45.3934383" lon="7.8194417"><ele>393.0</ele><time>2026-05-01T15:41:35.955Z</time></trkpt><trkpt lat="45.3934867" lon="7.8193783"><ele>391.99999999999994</ele><time>2026-05-01T15:41:36.955Z</time></trkpt><trkpt lat="45.393535" lon="7.8193133"><ele>391.0</ele><time>2026-05-01T15:41:37.954Z</time></trkpt><trkpt lat="45.393585" lon="7.819245"><ele>391.0</ele><time>2026-05-01T15:41:38.954Z</time></trkpt><trkpt lat="45.39364" lon="7.819185"><ele>391.0</ele><time>2026-05-01T15:41:39.954Z</time></trkpt><trkpt lat="45.3937033" lon="7.81914"><ele>391.0</ele><time>2026-05-01T15:41:40.955Z</time></trkpt><trkpt lat="45.3937667" lon="7.8191033"><ele>391.0</ele><time>2026-05-01T15:41:41.954Z</time></trkpt><trkpt lat="45.3939433" lon="7.819085"><ele>391.0</ele><time>2026-05-01T15:41:44.955Z</time></trkpt><trkpt lat="45.39403" lon="7.8190967"><ele>390.6</ele><time>2026-05-01T15:41:46.954Z</time></trkpt><trkpt lat="45.394095" lon="7.819215"><ele>390.20000000000005</ele><time>2026-05-01T15:41:54.955Z</time></trkpt><trkpt lat="45.3940767" lon="7.8193033"><ele>389.79999999999995</ele><time>2026-05-01T15:41:55.954Z</time></trkpt><trkpt lat="45.39404" lon="7.8194017"><ele>389.4</ele><time>2026-05-01T15:41:56.954Z</time></trkpt><trkpt lat="45.39398" lon="7.81951"><ele>389.0</ele><time>2026-05-01T15:41:57.954Z</time></trkpt><trkpt lat="45.3939" lon="7.81962"><ele>388.2</ele><time>2026-05-01T15:41:58.954Z</time></trkpt><trkpt lat="45.393825" lon="7.8197183"><ele>387.4</ele><time>2026-05-01T15:41:59.954Z</time></trkpt><trkpt lat="45.3937467" lon="7.8198167"><ele>386.6</ele><time>2026-05-01T15:42:00.954Z</time></trkpt><trkpt lat="45.3936717" lon="7.819915"><ele>385.8</ele><time>2026-05-01T15:42:01.954Z</time></trkpt><trkpt lat="45.3936" lon="7.8200067"><ele>385.0</ele><time>2026-05-01T15:42:02.954Z</time></trkpt><trkpt lat="45.3934517" lon="7.8202"><ele>384.4</ele><time>2026-05-01T15:42:04.954Z</time></trkpt><trkpt lat="45.3933733" lon="7.820295"><ele>383.8</ele><time>2026-05-01T15:42:05.955Z</time></trkpt><trkpt lat="45.3933" lon="7.8203983"><ele>383.20000000000005</ele><time>2026-05-01T15:42:06.954Z</time></trkpt><trkpt lat="45.39322" lon="7.8205017"><ele>382.6</ele><time>2026-05-01T15:42:07.954Z</time></trkpt><trkpt lat="45.39314" lon="7.8206017"><ele>382.0</ele><time>2026-05-01T15:42:08.955Z</time></trkpt><trkpt lat="45.39307" lon="7.8207"><ele>382.0</ele><time>2026-05-01T15:42:09.955Z</time></trkpt><trkpt lat="45.39302" lon="7.8207783"><ele>382.0</ele><time>2026-05-01T15:42:10.954Z</time></trkpt><trkpt lat="45.3929667" lon="7.820905"><ele>382.0</ele><time>2026-05-01T15:42:11.954Z</time></trkpt><trkpt lat="45.3929467" lon="7.82103"><ele>382.0</ele><time>2026-05-01T15:42:12.954Z</time></trkpt><trkpt lat="45.3929417" lon="7.8211617"><ele>382.0</ele><time>2026-05-01T15:42:13.954Z</time></trkpt><trkpt lat="45.392955" lon="7.8213083"><ele>383.0</ele><time>2026-05-01T15:42:14.954Z</time></trkpt><trkpt lat="45.3929817" lon="7.82146"><ele>384.0</ele><time>2026-05-01T15:42:15.954Z</time></trkpt><trkpt lat="45.393015" lon="7.821605"><ele>385.0</ele><time>2026-05-01T15:42:16.954Z</time></trkpt><trkpt lat="45.39306" lon="7.8217417"><ele>386.0</ele><time>2026-05-01T15:42:17.954Z</time></trkpt><trkpt lat="45.3931117" lon="7.821845"><ele>387.0</ele><time>2026-05-01T15:42:18.955Z</time></trkpt><trkpt lat="45.39318" lon="7.8219383"><ele>382.20000000000005</ele><time>2026-05-01T15:42:19.955Z</time></trkpt><trkpt lat="45.3932633" lon="7.822005"><ele>377.4</ele><time>2026-05-01T15:42:20.954Z</time></trkpt><trkpt lat="45.3933517" lon="7.8220517"><ele>372.6</ele><time>2026-05-01T15:42:21.954Z</time></trkpt><trkpt lat="45.3934433" lon="7.8220683"><ele>367.79999999999995</ele><time>2026-05-01T15:42:22.954Z</time></trkpt><trkpt lat="45.3935467" lon="7.8220633"><ele>363.0</ele><time>2026-05-01T15:42:23.955Z</time></trkpt><trkpt lat="45.3937617" lon="7.8221133"><ele>363.59999999999997</ele><time>2026-05-01T15:42:25.954Z</time></trkpt><trkpt lat="45.3938567" lon="7.8221883"><ele>364.2</ele><time>2026-05-01T15:42:26.955Z</time></trkpt><trkpt lat="45.3939333" lon="7.8222917"><ele>364.8</ele><time>2026-05-01T15:42:27.954Z</time></trkpt><trkpt lat="45.393995" lon="7.8223983"><ele>365.4</ele><time>2026-05-01T15:42:28.955Z</time></trkpt><trkpt lat="45.39407" lon="7.8224983"><ele>366.0</ele><time>2026-05-01T15:42:29.955Z</time></trkpt><trkpt lat="45.3941567" lon="7.8225783"><ele>366.0</ele><time>2026-05-01T15:42:30.954Z</time></trkpt><trkpt lat="45.3942533" lon="7.8226333"><ele>366.0</ele><time>2026-05-01T15:42:31.954Z</time></trkpt><trkpt lat="45.39436" lon="7.8226567"><ele>366.0</ele><time>2026-05-01T15:42:32.954Z</time></trkpt><trkpt lat="45.39447" lon="7.8226733"><ele>366.0</ele><time>2026-05-01T15:42:33.954Z</time></trkpt><trkpt lat="45.3945767" lon="7.8227183"><ele>366.0</ele><time>2026-05-01T15:42:34.955Z</time></trkpt><trkpt lat="45.3946667" lon="7.8227933"><ele>363.0</ele><time>2026-05-01T15:42:35.954Z</time></trkpt><trkpt lat="45.3947417" lon="7.822895"><ele>360.0</ele><time>2026-05-01T15:42:36.954Z</time></trkpt><trkpt lat="45.3948167" lon="7.822995"><ele>357.0</ele><time>2026-05-01T15:42:37.955Z</time></trkpt><trkpt lat="45.3948983" lon="7.8230817"><ele>354.0</ele><time>2026-05-01T15:42:38.954Z</time></trkpt><trkpt lat="45.39498" lon="7.8231483"><ele>351.0</ele><time>2026-05-01T15:42:39.954Z</time></trkpt><trkpt lat="45.3950617" lon="7.8232017"><ele>351.0</ele><time>2026-05-01T15:42:40.954Z</time></trkpt><trkpt lat="45.395145" lon="7.8232383"><ele>351.0</ele><time>2026-05-01T15:42:41.954Z</time></trkpt><trkpt lat="45.3952183" lon="7.823255"><ele>351.0</ele><time>2026-05-01T15:42:42.954Z</time></trkpt><trkpt lat="45.3952883" lon="7.8232583"><ele>351.0</ele><time>2026-05-01T15:42:43.954Z</time></trkpt><trkpt lat="45.3953533" lon="7.82326"><ele>351.0</ele><time>2026-05-01T15:42:44.954Z</time></trkpt><trkpt lat="45.3954867" lon="7.823425"><ele>350.8</ele><time>2026-05-01T15:42:48.954Z</time></trkpt><trkpt lat="45.3954167" lon="7.8235567"><ele>350.6</ele><time>2026-05-01T15:42:50.954Z</time></trkpt><trkpt lat="45.395305" lon="7.82364"><ele>350.4</ele><time>2026-05-01T15:42:52.955Z</time></trkpt><trkpt lat="45.3952" lon="7.8236717"><ele>350.2</ele><time>2026-05-01T15:42:54.954Z</time></trkpt><trkpt lat="45.3951233" lon="7.8236683"><ele>350.0</ele><time>2026-05-01T15:42:56.954Z</time></trkpt><trkpt lat="45.395055" lon="7.8237483"><ele>350.0</ele><time>2026-05-01T15:42:59.954Z</time></trkpt><trkpt lat="45.3950233" lon="7.8238383"><ele>350.0</ele><time>2026-05-01T15:43:01.955Z</time></trkpt><trkpt lat="45.3950467" lon="7.823925"><ele>350.0</ele><time>2026-05-01T15:43:05.954Z</time></trkpt><trkpt lat="45.3952233" lon="7.82398"><ele>350.0</ele><time>2026-05-01T15:43:10.954Z</time></trkpt><trkpt lat="45.3952917" lon="7.824025"><ele>350.0</ele><time>2026-05-01T15:43:12.954Z</time></trkpt><trkpt lat="45.39535" lon="7.8240783"><ele>350.0</ele><time>2026-05-01T15:43:14.954Z</time></trkpt><trkpt lat="45.3954" lon="7.8241383"><ele>350.0</ele><time>2026-05-01T15:43:16.954Z</time></trkpt><trkpt lat="45.3954517" lon="7.8242133"><ele>350.0</ele><time>2026-05-01T15:43:18.954Z</time></trkpt><trkpt lat="45.395495" lon="7.8242933"><ele>350.0</ele><time>2026-05-01T15:43:20.954Z</time></trkpt><trkpt lat="45.395555" lon="7.8243633"><ele>350.0</ele><time>2026-05-01T15:43:22.954Z</time></trkpt><trkpt lat="45.3956267" lon="7.8244183"><ele>350.0</ele><time>2026-05-01T15:43:24.955Z</time></trkpt><trkpt lat="45.3957067" lon="7.824475"><ele>347.2</ele><time>2026-05-01T15:43:26.954Z</time></trkpt><trkpt lat="45.395855" lon="7.8246083"><ele>344.4</ele><time>2026-05-01T15:43:30.954Z</time></trkpt><trkpt lat="45.395925" lon="7.824705"><ele>341.6</ele><time>2026-05-01T15:43:32.955Z</time></trkpt><trkpt lat="45.3959683" lon="7.8247983"><ele>338.8</ele><time>2026-05-01T15:43:34.954Z</time></trkpt><trkpt lat="45.3959833" lon="7.8249017"><ele>336.0</ele><time>2026-05-01T15:43:36.955Z</time></trkpt><trkpt lat="45.39598" lon="7.8249917"><ele>336.0</ele><time>2026-05-01T15:43:38.955Z</time></trkpt><trkpt lat="45.3959633" lon="7.825115"><ele>336.0</ele><time>2026-05-01T15:43:41.955Z</time></trkpt><trkpt lat="45.3959683" lon="7.825235"><ele>336.0</ele><time>2026-05-01T15:43:43.954Z</time></trkpt><trkpt lat="45.3959967" lon="7.825385"><ele>336.0</ele><time>2026-05-01T15:43:45.955Z</time></trkpt><trkpt lat="45.3960467" lon="7.8255133"><ele>336.0</ele><time>2026-05-01T15:43:47.955Z</time></trkpt><trkpt lat="45.3961267" lon="7.8257533"><ele>335.6</ele><time>2026-05-01T15:43:51.954Z</time></trkpt><trkpt lat="45.3961333" lon="7.8258683"><ele>335.20000000000005</ele><time>2026-05-01T15:43:53.954Z</time></trkpt><trkpt lat="45.3961217" lon="7.8259867"><ele>334.79999999999995</ele><time>2026-05-01T15:43:55.954Z</time></trkpt><trkpt lat="45.3961017" lon="7.8261283"><ele>334.4</ele><time>2026-05-01T15:43:57.954Z</time></trkpt><trkpt lat="45.3960867" lon="7.826285"><ele>334.0</ele><time>2026-05-01T15:43:59.955Z</time></trkpt><trkpt lat="45.3960683" lon="7.8264467"><ele>322.0</ele><time>2026-05-01T15:44:01.954Z</time></trkpt><trkpt lat="45.3960617" lon="7.8266033"><ele>322.0</ele><time>2026-05-01T15:44:03.954Z</time></trkpt><trkpt lat="45.396055" lon="7.826775"><ele>322.0</ele><time>2026-05-01T15:44:05.954Z</time></trkpt><trkpt lat="45.39604" lon="7.8269483"><ele>305.0</ele><time>2026-05-01T15:44:07.954Z</time></trkpt><trkpt lat="45.396025" lon="7.82704"><ele>305.0</ele><time>2026-05-01T15:44:08.954Z</time></trkpt></trkseg><trkseg><trkpt lat="45.4603585" lon="7.7779003"><ele>609.0</ele><time>2026-05-02T08:53:22.31Z</time></trkpt><trkpt lat="45.4602911" lon="7.7778897"><ele>609.0</ele><time>2026-05-02T08:53:27.244Z</time></trkpt></trkseg></trk></gpx>